<?xml version="1.0" encoding="UTF-8"?>
<gpx version="1.1" creator="2bulu-scraper" xmlns="http://www.topografix.com/GPX/1/1">
  <metadata><name>内江椑木镇到葛仙寺到七家滩</name><desc>source: 2bulu.com trackId=86213581; exported 2026-09-01T17:56:10.983Z</desc>
    <bounds minlat="29.5098228" minlon="105.0443802" maxlat="29.5595062" maxlon="105.0891445"/>
    <link href="https://www.2bulu.com/track/t-lzbecdorHXfp%252FR2KBg5Tzw%253D%253D.htm"><text>2bulu 源页面</text></link>
  </metadata>
  <wpt lat="29.5142975" lon="105.0897827"><ele>331</ele><name>
        </name></wpt>
  <wpt lat="29.5139561" lon="105.0894241"><ele>325</ele><name>
        </name></wpt>
  <wpt lat="29.5138092" lon="105.0891953"><ele>325</ele><name>
        </name></wpt>
  <wpt lat="29.5138092" lon="105.0891953"><ele>325</ele><name>
        </name></wpt>
  <wpt lat="29.5138092" lon="105.0891953"><ele>325</ele><name>
        </name></wpt>
  <wpt lat="29.5139389" lon="105.0889435"><ele>316</ele><name>
        </name></wpt>
  <wpt lat="29.5098848" lon="105.0869978"><ele>275</ele><name>
        </name></wpt>
  <wpt lat="29.5106825" lon="105.0843113"><ele>267</ele><name>
        </name></wpt>
  <wpt lat="29.5107392" lon="105.0840856"><ele>270</ele><name>
        </name></wpt>
  <wpt lat="29.5108802" lon="105.0839243"><ele>271</ele><name>
        </name></wpt>
  <wpt lat="29.511098" lon="105.0836364"><ele>269</ele><name>
        </name></wpt>
  <wpt lat="29.5125707" lon="105.0834494"><ele>259</ele><name>
        </name></wpt>
  <wpt lat="29.514701" lon="105.0811113"><ele>257</ele><name>
        </name></wpt>
  <wpt lat="29.5219273" lon="105.0745265"><ele>263</ele><name>
        </name></wpt>
  <wpt lat="29.5221068" lon="105.0743762"><ele>262</ele><name>
        </name></wpt>
  <wpt lat="29.5240493" lon="105.0622164"><ele>271</ele><name>
        </name></wpt>
  <wpt lat="29.5255494" lon="105.0594601"><ele>324</ele><name>
        </name></wpt>
  <wpt lat="29.5255576" lon="105.0593531"><ele>323</ele><name>
        </name></wpt>
  <wpt lat="29.5262455" lon="105.0582444"><ele>319</ele><name>
        </name></wpt>
  <wpt lat="29.5261908" lon="105.056469"><ele>321</ele><name>
        </name></wpt>
  <wpt lat="29.5265593" lon="105.0561094"><ele>319</ele><name>
        </name></wpt>
  <wpt lat="29.52668" lon="105.0490848"><ele>327</ele><name>
        </name></wpt>
  <wpt lat="29.5283617" lon="105.0488669"><ele>326</ele><name>
        </name></wpt>
  <wpt lat="29.5313053" lon="105.0443802"><ele>452</ele><name>
        </name></wpt>
  <wpt lat="29.5314663" lon="105.0444584"><ele>414</ele><name>
        </name></wpt>
  <wpt lat="29.5346414" lon="105.0461101"><ele>350</ele><name>
        </name></wpt>
  <wpt lat="29.5379738" lon="105.0451848"><ele>256</ele><name>
        </name></wpt>
  <wpt lat="29.5436979" lon="105.0469525"><ele>257</ele><name>
        </name></wpt>
  <wpt lat="29.5525072" lon="105.0499703"><ele>264</ele><name>
        </name></wpt>
  <wpt lat="29.5521161" lon="105.050598"><ele>270</ele><name>
        </name></wpt>
  <wpt lat="29.5530177" lon="105.0498059"><ele>279</ele><name>
        </name></wpt>
  <trk><name>内江椑木镇到葛仙寺到七家滩</name>
      <trkseg>
        <trkpt lat="29.513725" lon="105.0891445"><ele>277.46</ele><time>2026-06-18T23:10:34.000Z</time></trkpt>
        <trkpt lat="29.5136461" lon="105.0891043"><ele>277.46</ele><time>2026-06-18T23:11:12.000Z</time></trkpt>
        <trkpt lat="29.5135444" lon="105.0890835"><ele>275.6</ele><time>2026-06-18T23:11:24.000Z</time></trkpt>
        <trkpt lat="29.5134553" lon="105.0890194"><ele>274.64</ele><time>2026-06-18T23:11:32.000Z</time></trkpt>
        <trkpt lat="29.5133723" lon="105.0889356"><ele>273.33</ele><time>2026-06-18T23:11:40.000Z</time></trkpt>
        <trkpt lat="29.5133028" lon="105.0888361"><ele>272.22</ele><time>2026-06-18T23:11:48.000Z</time></trkpt>
        <trkpt lat="29.5132348" lon="105.0887465"><ele>271.05</ele><time>2026-06-18T23:11:57.000Z</time></trkpt>
        <trkpt lat="29.5131619" lon="105.0886512"><ele>270.19</ele><time>2026-06-18T23:12:06.000Z</time></trkpt>
        <trkpt lat="29.513091" lon="105.0885627"><ele>269.13</ele><time>2026-06-18T23:12:15.000Z</time></trkpt>
        <trkpt lat="29.5130331" lon="105.0884726"><ele>268.34</ele><time>2026-06-18T23:12:22.000Z</time></trkpt>
        <trkpt lat="29.5129757" lon="105.0883666"><ele>267.8</ele><time>2026-06-18T23:12:33.000Z</time></trkpt>
        <trkpt lat="29.512921" lon="105.0882729"><ele>267.48</ele><time>2026-06-18T23:12:39.000Z</time></trkpt>
        <trkpt lat="29.5128629" lon="105.0881781"><ele>267.22</ele><time>2026-06-18T23:12:46.000Z</time></trkpt>
        <trkpt lat="29.5127972" lon="105.0880957"><ele>266.97</ele><time>2026-06-18T23:12:57.000Z</time></trkpt>
        <trkpt lat="29.5127343" lon="105.0880181"><ele>266.74</ele><time>2026-06-18T23:13:02.000Z</time></trkpt>
        <trkpt lat="29.5126464" lon="105.0879462"><ele>266.27</ele><time>2026-06-18T23:13:11.000Z</time></trkpt>
        <trkpt lat="29.5125549" lon="105.0879025"><ele>265.45</ele><time>2026-06-18T23:13:20.000Z</time></trkpt>
        <trkpt lat="29.5124608" lon="105.0878807"><ele>265.19</ele><time>2026-06-18T23:13:28.000Z</time></trkpt>
        <trkpt lat="29.5123632" lon="105.0878669"><ele>265.29</ele><time>2026-06-18T23:13:37.000Z</time></trkpt>
        <trkpt lat="29.5122515" lon="105.0878861"><ele>265.1</ele><time>2026-06-18T23:13:46.000Z</time></trkpt>
        <trkpt lat="29.5121442" lon="105.0879179"><ele>265.15</ele><time>2026-06-18T23:13:54.000Z</time></trkpt>
        <trkpt lat="29.5120345" lon="105.0879539"><ele>265.03</ele><time>2026-06-18T23:14:02.000Z</time></trkpt>
        <trkpt lat="29.5119359" lon="105.0880069"><ele>264.78</ele><time>2026-06-18T23:14:10.000Z</time></trkpt>
        <trkpt lat="29.5118283" lon="105.0880295"><ele>264.6</ele><time>2026-06-18T23:14:18.000Z</time></trkpt>
        <trkpt lat="29.5117419" lon="105.0880712"><ele>264.38</ele><time>2026-06-18T23:14:26.000Z</time></trkpt>
        <trkpt lat="29.5116402" lon="105.0881009"><ele>263.69</ele><time>2026-06-18T23:14:34.000Z</time></trkpt>
        <trkpt lat="29.5115416" lon="105.0881251"><ele>263.43</ele><time>2026-06-18T23:14:43.000Z</time></trkpt>
        <trkpt lat="29.5114395" lon="105.0881556"><ele>263.5</ele><time>2026-06-18T23:14:50.000Z</time></trkpt>
        <trkpt lat="29.5113502" lon="105.0881926"><ele>263.29</ele><time>2026-06-18T23:14:58.000Z</time></trkpt>
        <trkpt lat="29.5112518" lon="105.0881913"><ele>263.08</ele><time>2026-06-18T23:15:06.000Z</time></trkpt>
        <trkpt lat="29.5111812" lon="105.0881288"><ele>262.93</ele><time>2026-06-18T23:15:16.000Z</time></trkpt>
        <trkpt lat="29.5111207" lon="105.0880383"><ele>261.82</ele><time>2026-06-18T23:15:26.000Z</time></trkpt>
        <trkpt lat="29.5110587" lon="105.0879537"><ele>261.48</ele><time>2026-06-18T23:15:36.000Z</time></trkpt>
        <trkpt lat="29.5110161" lon="105.0878572"><ele>260.62</ele><time>2026-06-18T23:15:44.000Z</time></trkpt>
        <trkpt lat="29.5110794" lon="105.0878007"><ele>263.54</ele><time>2026-06-18T23:15:52.000Z</time></trkpt>
        <trkpt lat="29.5111299" lon="105.0877115"><ele>267.37</ele><time>2026-06-18T23:16:00.000Z</time></trkpt>
        <trkpt lat="29.5111265" lon="105.08761"><ele>269.49</ele><time>2026-06-18T23:16:08.000Z</time></trkpt>
        <trkpt lat="29.511098" lon="105.0874979"><ele>269.65</ele><time>2026-06-18T23:16:18.000Z</time></trkpt>
        <trkpt lat="29.5110776" lon="105.0873757"><ele>269.02</ele><time>2026-06-18T23:16:28.000Z</time></trkpt>
        <trkpt lat="29.5110373" lon="105.0872494"><ele>268.24</ele><time>2026-06-18T23:16:38.000Z</time></trkpt>
        <trkpt lat="29.5110177" lon="105.0871275"><ele>267.58</ele><time>2026-06-18T23:16:48.000Z</time></trkpt>
        <trkpt lat="29.5109887" lon="105.0870202"><ele>267.09</ele><time>2026-06-18T23:16:58.000Z</time></trkpt>
        <trkpt lat="29.5108999" lon="105.0869812"><ele>267.44</ele><time>2026-06-18T23:17:06.000Z</time></trkpt>
        <trkpt lat="29.5107909" lon="105.0870026"><ele>268.24</ele><time>2026-06-18T23:17:16.000Z</time></trkpt>
        <trkpt lat="29.5106946" lon="105.0870516"><ele>268.94</ele><time>2026-06-18T23:17:24.000Z</time></trkpt>
        <trkpt lat="29.5106003" lon="105.0870985"><ele>269.12</ele><time>2026-06-18T23:17:34.000Z</time></trkpt>
        <trkpt lat="29.5105009" lon="105.0871401"><ele>269.53</ele><time>2026-06-18T23:17:42.000Z</time></trkpt>
        <trkpt lat="29.5104006" lon="105.0871511"><ele>270.56</ele><time>2026-06-18T23:17:53.000Z</time></trkpt>
        <trkpt lat="29.5103047" lon="105.0871358"><ele>271.66</ele><time>2026-06-18T23:18:00.000Z</time></trkpt>
        <trkpt lat="29.5102139" lon="105.087148"><ele>272.35</ele><time>2026-06-18T23:18:12.000Z</time></trkpt>
        <trkpt lat="29.5101254" lon="105.0871333"><ele>279.7</ele><time>2026-06-18T23:18:20.000Z</time></trkpt>
        <trkpt lat="29.5100264" lon="105.0871099"><ele>283.66</ele><time>2026-06-18T23:18:32.000Z</time></trkpt>
        <trkpt lat="29.5099222" lon="105.087087"><ele>280.78</ele><time>2026-06-18T23:18:42.000Z</time></trkpt>
        <trkpt lat="29.5098848" lon="105.0869978"><ele>279.58</ele><time>2026-06-18T23:19:12.000Z</time></trkpt>
        <trkpt lat="29.509878" lon="105.0868857"><ele>282.33</ele><time>2026-06-18T23:19:28.000Z</time></trkpt>
        <trkpt lat="29.5098926" lon="105.0867734"><ele>283.44</ele><time>2026-06-18T23:19:42.000Z</time></trkpt>
        <trkpt lat="29.5099347" lon="105.0866648"><ele>282.93</ele><time>2026-06-18T23:19:53.000Z</time></trkpt>
        <trkpt lat="29.5099148" lon="105.0865608"><ele>281.59</ele><time>2026-06-18T23:20:03.000Z</time></trkpt>
        <trkpt lat="29.5099092" lon="105.0864503"><ele>279.36</ele><time>2026-06-18T23:20:10.000Z</time></trkpt>
        <trkpt lat="29.5099213" lon="105.0863427"><ele>277.53</ele><time>2026-06-18T23:20:18.000Z</time></trkpt>
        <trkpt lat="29.5099313" lon="105.0862231"><ele>273.37</ele><time>2026-06-18T23:20:28.000Z</time></trkpt>
        <trkpt lat="29.5099481" lon="105.0861074"><ele>270.7</ele><time>2026-06-18T23:20:38.000Z</time></trkpt>
        <trkpt lat="29.5099397" lon="105.0859877"><ele>268.68</ele><time>2026-06-18T23:20:51.000Z</time></trkpt>
        <trkpt lat="29.5099626" lon="105.0858763"><ele>268.76</ele><time>2026-06-18T23:21:00.000Z</time></trkpt>
        <trkpt lat="29.5099894" lon="105.0857543"><ele>266.56</ele><time>2026-06-18T23:21:14.000Z</time></trkpt>
        <trkpt lat="29.5099641" lon="105.0856393"><ele>265.05</ele><time>2026-06-18T23:21:24.000Z</time></trkpt>
        <trkpt lat="29.5099043" lon="105.0855566"><ele>263.33</ele><time>2026-06-18T23:21:32.000Z</time></trkpt>
        <trkpt lat="29.5098228" lon="105.0854958"><ele>262.23</ele><time>2026-06-18T23:21:40.000Z</time></trkpt>
        <trkpt lat="29.5098711" lon="105.0855156"><ele>261.18</ele><time>2026-06-18T23:22:04.000Z</time></trkpt>
        <trkpt lat="29.5099481" lon="105.0855891"><ele>259.12</ele><time>2026-06-18T23:22:12.000Z</time></trkpt>
        <trkpt lat="29.5100181" lon="105.0856825"><ele>258.33</ele><time>2026-06-18T23:22:20.000Z</time></trkpt>
        <trkpt lat="29.5100922" lon="105.0856555"><ele>257.58</ele><time>2026-06-18T23:22:30.000Z</time></trkpt>
        <trkpt lat="29.5101154" lon="105.0855496"><ele>257.07</ele><time>2026-06-18T23:22:50.000Z</time></trkpt>
        <trkpt lat="29.5101083" lon="105.0854031"><ele>256.71</ele><time>2026-06-18T23:22:58.000Z</time></trkpt>
        <trkpt lat="29.5101283" lon="105.0852687"><ele>257.77</ele><time>2026-06-18T23:23:08.000Z</time></trkpt>
        <trkpt lat="29.5101702" lon="105.0851561"><ele>257.64</ele><time>2026-06-18T23:23:18.000Z</time></trkpt>
        <trkpt lat="29.5102001" lon="105.0850388"><ele>257.71</ele><time>2026-06-18T23:23:28.000Z</time></trkpt>
        <trkpt lat="29.5102454" lon="105.0849339"><ele>257.57</ele><time>2026-06-18T23:23:42.000Z</time></trkpt>
        <trkpt lat="29.5102939" lon="105.0848248"><ele>258.16</ele><time>2026-06-18T23:23:54.000Z</time></trkpt>
        <trkpt lat="29.5103633" lon="105.0847289"><ele>260.46</ele><time>2026-06-18T23:24:04.000Z</time></trkpt>
        <trkpt lat="29.5104375" lon="105.0846557"><ele>261.66</ele><time>2026-06-18T23:24:12.000Z</time></trkpt>
        <trkpt lat="29.5105154" lon="105.0845872"><ele>262.17</ele><time>2026-06-18T23:24:20.000Z</time></trkpt>
        <trkpt lat="29.5105871" lon="105.0845091"><ele>264.19</ele><time>2026-06-18T23:24:36.000Z</time></trkpt>
        <trkpt lat="29.5106499" lon="105.0844187"><ele>264.06</ele><time>2026-06-18T23:24:52.000Z</time></trkpt>
        <trkpt lat="29.5106825" lon="105.0843113"><ele>266.66</ele><time>2026-06-18T23:25:36.000Z</time></trkpt>
        <trkpt lat="29.5107108" lon="105.0842074"><ele>267.12</ele><time>2026-06-18T23:26:00.000Z</time></trkpt>
        <trkpt lat="29.5107392" lon="105.0840856"><ele>268.23</ele><time>2026-06-18T23:26:20.000Z</time></trkpt>
        <trkpt lat="29.5108064" lon="105.0840073"><ele>269.06</ele><time>2026-06-18T23:26:44.000Z</time></trkpt>
        <trkpt lat="29.5108802" lon="105.0839243"><ele>269.7</ele><time>2026-06-18T23:27:22.000Z</time></trkpt>
        <trkpt lat="29.5109251" lon="105.0838741"><ele>269.69</ele><time>2026-06-18T23:27:28.000Z</time></trkpt>
        <trkpt lat="29.510994" lon="105.0838209"><ele>269.62</ele><time>2026-06-18T23:28:07.000Z</time></trkpt>
        <trkpt lat="29.5110372" lon="105.0837251"><ele>269.51</ele><time>2026-06-18T23:28:15.000Z</time></trkpt>
        <trkpt lat="29.5110371" lon="105.0836812"><ele>269.49</ele><time>2026-06-18T23:28:19.000Z</time></trkpt>
        <trkpt lat="29.511098" lon="105.0836364"><ele>269.37</ele><time>2026-06-18T23:28:55.000Z</time></trkpt>
        <trkpt lat="29.5111889" lon="105.0836479"><ele>268.52</ele><time>2026-06-18T23:29:03.000Z</time></trkpt>
        <trkpt lat="29.511274" lon="105.0837276"><ele>268.07</ele><time>2026-06-18T23:29:13.000Z</time></trkpt>
        <trkpt lat="29.5113601" lon="105.0838017"><ele>265.21</ele><time>2026-06-18T23:29:21.000Z</time></trkpt>
        <trkpt lat="29.5114586" lon="105.0838722"><ele>263.64</ele><time>2026-06-18T23:29:31.000Z</time></trkpt>
        <trkpt lat="29.5115695" lon="105.0839401"><ele>262.81</ele><time>2026-06-18T23:29:41.000Z</time></trkpt>
        <trkpt lat="29.511654" lon="105.0840082"><ele>262.42</ele><time>2026-06-18T23:30:52.000Z</time></trkpt>
        <trkpt lat="29.5117471" lon="105.0840871"><ele>264.86</ele><time>2026-06-18T23:31:03.000Z</time></trkpt>
        <trkpt lat="29.5118385" lon="105.0841193"><ele>267.97</ele><time>2026-06-18T23:31:15.000Z</time></trkpt>
        <trkpt lat="29.5119326" lon="105.0841128"><ele>269.99</ele><time>2026-06-18T23:31:22.000Z</time></trkpt>
        <trkpt lat="29.5120244" lon="105.0840946"><ele>269.36</ele><time>2026-06-18T23:31:31.000Z</time></trkpt>
        <trkpt lat="29.5121215" lon="105.0840679"><ele>270.22</ele><time>2026-06-18T23:31:42.000Z</time></trkpt>
        <trkpt lat="29.5121617" lon="105.0839796"><ele>270.13</ele><time>2026-06-18T23:31:50.000Z</time></trkpt>
        <trkpt lat="29.5122058" lon="105.083868"><ele>267.98</ele><time>2026-06-18T23:32:00.000Z</time></trkpt>
        <trkpt lat="29.5122931" lon="105.0837648"><ele>264.92</ele><time>2026-06-18T23:32:07.000Z</time></trkpt>
        <trkpt lat="29.5123227" lon="105.0837319"><ele>262.6</ele><time>2026-06-18T23:32:09.000Z</time></trkpt>
        <trkpt lat="29.5123423" lon="105.0836536"><ele>261.16</ele><time>2026-06-18T23:33:05.000Z</time></trkpt>
        <trkpt lat="29.5124001" lon="105.0835616"><ele>260.44</ele><time>2026-06-18T23:33:15.000Z</time></trkpt>
        <trkpt lat="29.5124779" lon="105.0834812"><ele>259.7</ele><time>2026-06-18T23:33:24.000Z</time></trkpt>
        <trkpt lat="29.5125707" lon="105.0834494"><ele>258.03</ele><time>2026-06-18T23:33:37.000Z</time></trkpt>
        <trkpt lat="29.5126337" lon="105.083381"><ele>258.35</ele><time>2026-06-18T23:34:01.000Z</time></trkpt>
        <trkpt lat="29.5126812" lon="105.0832949"><ele>259.08</ele><time>2026-06-18T23:34:09.000Z</time></trkpt>
        <trkpt lat="29.5127348" lon="105.0832056"><ele>259.29</ele><time>2026-06-18T23:34:17.000Z</time></trkpt>
        <trkpt lat="29.5127849" lon="105.0831122"><ele>259.72</ele><time>2026-06-18T23:34:26.000Z</time></trkpt>
        <trkpt lat="29.5128429" lon="105.0830055"><ele>258.63</ele><time>2026-06-18T23:34:35.000Z</time></trkpt>
        <trkpt lat="29.5129069" lon="105.0829187"><ele>258.28</ele><time>2026-06-18T23:34:44.000Z</time></trkpt>
        <trkpt lat="29.5129663" lon="105.0828186"><ele>258.29</ele><time>2026-06-18T23:35:03.000Z</time></trkpt>
        <trkpt lat="29.5130136" lon="105.0827191"><ele>258.89</ele><time>2026-06-18T23:35:11.000Z</time></trkpt>
        <trkpt lat="29.5130905" lon="105.0826347"><ele>259.75</ele><time>2026-06-18T23:35:21.000Z</time></trkpt>
        <trkpt lat="29.5131514" lon="105.0825307"><ele>259.98</ele><time>2026-06-18T23:35:32.000Z</time></trkpt>
        <trkpt lat="29.5132142" lon="105.0824277"><ele>260.53</ele><time>2026-06-18T23:35:41.000Z</time></trkpt>
        <trkpt lat="29.5132859" lon="105.0823468"><ele>261.01</ele><time>2026-06-18T23:35:50.000Z</time></trkpt>
        <trkpt lat="29.5133662" lon="105.082272"><ele>261.36</ele><time>2026-06-18T23:36:01.000Z</time></trkpt>
        <trkpt lat="29.5134392" lon="105.0822007"><ele>261.68</ele><time>2026-06-18T23:36:11.000Z</time></trkpt>
        <trkpt lat="29.5135148" lon="105.0821322"><ele>261.31</ele><time>2026-06-18T23:36:29.000Z</time></trkpt>
        <trkpt lat="29.5135884" lon="105.0820661"><ele>261.61</ele><time>2026-06-18T23:36:41.000Z</time></trkpt>
        <trkpt lat="29.5136581" lon="105.0819906"><ele>261.39</ele><time>2026-06-18T23:36:53.000Z</time></trkpt>
        <trkpt lat="29.5137359" lon="105.0819185"><ele>260.98</ele><time>2026-06-18T23:37:03.000Z</time></trkpt>
        <trkpt lat="29.5138211" lon="105.0818317"><ele>259.05</ele><time>2026-06-18T23:37:13.000Z</time></trkpt>
        <trkpt lat="29.51391" lon="105.0817464"><ele>259.35</ele><time>2026-06-18T23:37:23.000Z</time></trkpt>
        <trkpt lat="29.5139947" lon="105.0816796"><ele>257.55</ele><time>2026-06-18T23:37:31.000Z</time></trkpt>
        <trkpt lat="29.5140705" lon="105.0816156"><ele>258.17</ele><time>2026-06-18T23:37:40.000Z</time></trkpt>
        <trkpt lat="29.5141474" lon="105.081524"><ele>258.06</ele><time>2026-06-18T23:37:49.000Z</time></trkpt>
        <trkpt lat="29.5142344" lon="105.0814507"><ele>258.01</ele><time>2026-06-18T23:37:59.000Z</time></trkpt>
        <trkpt lat="29.5143076" lon="105.0813679"><ele>257.75</ele><time>2026-06-18T23:38:11.000Z</time></trkpt>
        <trkpt lat="29.5143923" lon="105.0812754"><ele>257.24</ele><time>2026-06-18T23:38:22.000Z</time></trkpt>
        <trkpt lat="29.514482" lon="105.0812254"><ele>257.44</ele><time>2026-06-18T23:38:33.000Z</time></trkpt>
        <trkpt lat="29.5145761" lon="105.0812028"><ele>257.72</ele><time>2026-06-18T23:39:13.000Z</time></trkpt>
        <trkpt lat="29.5146641" lon="105.081145"><ele>257.56</ele><time>2026-06-18T23:39:27.000Z</time></trkpt>
        <trkpt lat="29.514701" lon="105.0811113"><ele>256.93</ele><time>2026-06-18T23:39:31.000Z</time></trkpt>
        <trkpt lat="29.5147886" lon="105.0810933"><ele>256.6</ele><time>2026-06-18T23:39:49.000Z</time></trkpt>
        <trkpt lat="29.514884" lon="105.0810709"><ele>256.31</ele><time>2026-06-18T23:39:58.000Z</time></trkpt>
        <trkpt lat="29.5149744" lon="105.0810413"><ele>255.76</ele><time>2026-06-18T23:40:07.000Z</time></trkpt>
        <trkpt lat="29.5150767" lon="105.0810445"><ele>255.77</ele><time>2026-06-18T23:40:13.000Z</time></trkpt>
        <trkpt lat="29.5151169" lon="105.0810444"><ele>255.68</ele><time>2026-06-18T23:40:17.000Z</time></trkpt>
        <trkpt lat="29.5152002" lon="105.0810511"><ele>255.43</ele><time>2026-06-18T23:40:34.000Z</time></trkpt>
        <trkpt lat="29.5152797" lon="105.0810396"><ele>253.85</ele><time>2026-06-18T23:40:47.000Z</time></trkpt>
        <trkpt lat="29.5153586" lon="105.0809934"><ele>252.17</ele><time>2026-06-18T23:41:07.000Z</time></trkpt>
        <trkpt lat="29.515444" lon="105.0809487"><ele>250.74</ele><time>2026-06-18T23:41:37.000Z</time></trkpt>
        <trkpt lat="29.51554" lon="105.0809078"><ele>249.73</ele><time>2026-06-18T23:41:48.000Z</time></trkpt>
        <trkpt lat="29.5156318" lon="105.0808663"><ele>248.07</ele><time>2026-06-18T23:42:03.000Z</time></trkpt>
        <trkpt lat="29.515699" lon="105.0807884"><ele>247.49</ele><time>2026-06-18T23:43:04.000Z</time></trkpt>
        <trkpt lat="29.5157364" lon="105.0806891"><ele>247.82</ele><time>2026-06-18T23:43:34.000Z</time></trkpt>
        <trkpt lat="29.5157777" lon="105.0805847"><ele>247.75</ele><time>2026-06-18T23:43:52.000Z</time></trkpt>
        <trkpt lat="29.5158392" lon="105.0805045"><ele>247.55</ele><time>2026-06-18T23:44:20.000Z</time></trkpt>
        <trkpt lat="29.5159215" lon="105.0804418"><ele>247.77</ele><time>2026-06-18T23:44:38.000Z</time></trkpt>
        <trkpt lat="29.5160051" lon="105.0803782"><ele>247.95</ele><time>2026-06-18T23:44:52.000Z</time></trkpt>
        <trkpt lat="29.516058" lon="105.0803594"><ele>248.8</ele><time>2026-06-18T23:45:01.000Z</time></trkpt>
        <trkpt lat="29.5161408" lon="105.0803378"><ele>250.18</ele><time>2026-06-18T23:45:52.000Z</time></trkpt>
        <trkpt lat="29.5162251" lon="105.0803003"><ele>250.89</ele><time>2026-06-18T23:46:22.000Z</time></trkpt>
        <trkpt lat="29.516312" lon="105.0802505"><ele>250.64</ele><time>2026-06-18T23:46:54.000Z</time></trkpt>
        <trkpt lat="29.516405" lon="105.0802055"><ele>250.44</ele><time>2026-06-18T23:47:36.000Z</time></trkpt>
        <trkpt lat="29.5164938" lon="105.0801668"><ele>250.85</ele><time>2026-06-18T23:47:47.000Z</time></trkpt>
        <trkpt lat="29.51659" lon="105.0801264"><ele>251.57</ele><time>2026-06-18T23:48:01.000Z</time></trkpt>
        <trkpt lat="29.5166752" lon="105.08007"><ele>251.82</ele><time>2026-06-18T23:48:16.000Z</time></trkpt>
        <trkpt lat="29.5167564" lon="105.0800111"><ele>251.48</ele><time>2026-06-18T23:48:38.000Z</time></trkpt>
        <trkpt lat="29.516843" lon="105.0799573"><ele>251.57</ele><time>2026-06-18T23:49:08.000Z</time></trkpt>
        <trkpt lat="29.5169251" lon="105.0799058"><ele>251.91</ele><time>2026-06-18T23:49:34.000Z</time></trkpt>
        <trkpt lat="29.517008" lon="105.0798619"><ele>251.71</ele><time>2026-06-18T23:50:02.000Z</time></trkpt>
        <trkpt lat="29.5170892" lon="105.0798122"><ele>251.59</ele><time>2026-06-18T23:50:32.000Z</time></trkpt>
        <trkpt lat="29.5171787" lon="105.0797829"><ele>251.75</ele><time>2026-06-18T23:50:52.000Z</time></trkpt>
        <trkpt lat="29.5172708" lon="105.0797913"><ele>251.98</ele><time>2026-06-18T23:51:16.000Z</time></trkpt>
        <trkpt lat="29.5173699" lon="105.0797747"><ele>252.25</ele><time>2026-06-18T23:51:32.000Z</time></trkpt>
        <trkpt lat="29.5174649" lon="105.0797369"><ele>252.14</ele><time>2026-06-18T23:51:44.000Z</time></trkpt>
        <trkpt lat="29.5175509" lon="105.0796764"><ele>251.71</ele><time>2026-06-18T23:51:57.000Z</time></trkpt>
        <trkpt lat="29.5176394" lon="105.0796215"><ele>251.05</ele><time>2026-06-18T23:52:23.000Z</time></trkpt>
        <trkpt lat="29.517724" lon="105.0795671"><ele>250.27</ele><time>2026-06-18T23:52:41.000Z</time></trkpt>
        <trkpt lat="29.5178023" lon="105.0795051"><ele>249.26</ele><time>2026-06-18T23:52:57.000Z</time></trkpt>
        <trkpt lat="29.5178889" lon="105.0794602"><ele>247.26</ele><time>2026-06-18T23:53:11.000Z</time></trkpt>
        <trkpt lat="29.5179661" lon="105.0794042"><ele>246.51</ele><time>2026-06-18T23:53:23.000Z</time></trkpt>
        <trkpt lat="29.5180388" lon="105.0793267"><ele>246.03</ele><time>2026-06-18T23:53:35.000Z</time></trkpt>
        <trkpt lat="29.5180986" lon="105.0792428"><ele>245.79</ele><time>2026-06-18T23:53:53.000Z</time></trkpt>
        <trkpt lat="29.5181631" lon="105.0791645"><ele>245.85</ele><time>2026-06-18T23:54:13.000Z</time></trkpt>
        <trkpt lat="29.5182248" lon="105.0790849"><ele>246.13</ele><time>2026-06-18T23:54:28.000Z</time></trkpt>
        <trkpt lat="29.5182808" lon="105.0789962"><ele>246.28</ele><time>2026-06-18T23:54:45.000Z</time></trkpt>
        <trkpt lat="29.5182995" lon="105.0788936"><ele>246.86</ele><time>2026-06-18T23:55:12.000Z</time></trkpt>
        <trkpt lat="29.5182937" lon="105.0787803"><ele>249.11</ele><time>2026-06-18T23:55:46.000Z</time></trkpt>
        <trkpt lat="29.5182717" lon="105.0786727"><ele>253.05</ele><time>2026-06-18T23:56:06.000Z</time></trkpt>
        <trkpt lat="29.5182469" lon="105.078566"><ele>256.72</ele><time>2026-06-18T23:56:34.000Z</time></trkpt>
        <trkpt lat="29.5182107" lon="105.0784644"><ele>259.71</ele><time>2026-06-18T23:56:54.000Z</time></trkpt>
        <trkpt lat="29.5181468" lon="105.0783869"><ele>263.12</ele><time>2026-06-18T23:57:06.000Z</time></trkpt>
        <trkpt lat="29.5180568" lon="105.0783461"><ele>265.9</ele><time>2026-06-18T23:57:23.000Z</time></trkpt>
        <trkpt lat="29.5180619" lon="105.0782615"><ele>267.02</ele><time>2026-06-18T23:57:34.000Z</time></trkpt>
        <trkpt lat="29.518126" lon="105.0781783"><ele>267.67</ele><time>2026-06-18T23:57:44.000Z</time></trkpt>
        <trkpt lat="29.5181943" lon="105.0780877"><ele>267.93</ele><time>2026-06-18T23:57:53.000Z</time></trkpt>
        <trkpt lat="29.5182693" lon="105.0780046"><ele>271.05</ele><time>2026-06-18T23:58:01.000Z</time></trkpt>
        <trkpt lat="29.5183548" lon="105.0779522"><ele>267.82</ele><time>2026-06-18T23:58:10.000Z</time></trkpt>
        <trkpt lat="29.5184015" lon="105.0778595"><ele>266.49</ele><time>2026-06-18T23:58:19.000Z</time></trkpt>
        <trkpt lat="29.5184396" lon="105.0777592"><ele>265.7</ele><time>2026-06-18T23:58:27.000Z</time></trkpt>
        <trkpt lat="29.518486" lon="105.0776673"><ele>266.01</ele><time>2026-06-18T23:58:34.000Z</time></trkpt>
        <trkpt lat="29.5185421" lon="105.0775851"><ele>266.96</ele><time>2026-06-18T23:58:45.000Z</time></trkpt>
        <trkpt lat="29.5186195" lon="105.0775139"><ele>267.9</ele><time>2026-06-18T23:58:52.000Z</time></trkpt>
        <trkpt lat="29.5186873" lon="105.0774244"><ele>271.24</ele><time>2026-06-18T23:59:02.000Z</time></trkpt>
        <trkpt lat="29.5187594" lon="105.0773555"><ele>271.05</ele><time>2026-06-18T23:59:09.000Z</time></trkpt>
        <trkpt lat="29.5188418" lon="105.0772981"><ele>270.93</ele><time>2026-06-18T23:59:17.000Z</time></trkpt>
        <trkpt lat="29.5189225" lon="105.0772322"><ele>270.67</ele><time>2026-06-18T23:59:26.000Z</time></trkpt>
        <trkpt lat="29.5189976" lon="105.0771672"><ele>270.26</ele><time>2026-06-18T23:59:33.000Z</time></trkpt>
        <trkpt lat="29.5190761" lon="105.0771097"><ele>270.05</ele><time>2026-06-18T23:59:41.000Z</time></trkpt>
        <trkpt lat="29.5191564" lon="105.0770391"><ele>271.42</ele><time>2026-06-18T23:59:49.000Z</time></trkpt>
        <trkpt lat="29.5192338" lon="105.0769532"><ele>270.33</ele><time>2026-06-18T23:59:59.000Z</time></trkpt>
        <trkpt lat="29.519309" lon="105.0768762"><ele>269.55</ele><time>2026-06-19T00:00:11.000Z</time></trkpt>
        <trkpt lat="29.5193905" lon="105.076815"><ele>268.7</ele><time>2026-06-19T00:00:17.000Z</time></trkpt>
        <trkpt lat="29.5194579" lon="105.0767386"><ele>269.25</ele><time>2026-06-19T00:00:25.000Z</time></trkpt>
        <trkpt lat="29.5195261" lon="105.0766584"><ele>268.79</ele><time>2026-06-19T00:00:35.000Z</time></trkpt>
        <trkpt lat="29.5195939" lon="105.0765791"><ele>268.11</ele><time>2026-06-19T00:00:43.000Z</time></trkpt>
        <trkpt lat="29.5196748" lon="105.076519"><ele>267.49</ele><time>2026-06-19T00:00:53.000Z</time></trkpt>
        <trkpt lat="29.5197604" lon="105.0764638"><ele>267.22</ele><time>2026-06-19T00:01:03.000Z</time></trkpt>
        <trkpt lat="29.5198462" lon="105.0763963"><ele>266.93</ele><time>2026-06-19T00:01:13.000Z</time></trkpt>
        <trkpt lat="29.5199256" lon="105.0763289"><ele>266.65</ele><time>2026-06-19T00:01:21.000Z</time></trkpt>
        <trkpt lat="29.5200082" lon="105.0762704"><ele>266.46</ele><time>2026-06-19T00:01:29.000Z</time></trkpt>
        <trkpt lat="29.5200956" lon="105.0762048"><ele>266.97</ele><time>2026-06-19T00:01:39.000Z</time></trkpt>
        <trkpt lat="29.520176" lon="105.0761388"><ele>267.66</ele><time>2026-06-19T00:01:47.000Z</time></trkpt>
        <trkpt lat="29.5202527" lon="105.0760736"><ele>268.56</ele><time>2026-06-19T00:01:54.000Z</time></trkpt>
        <trkpt lat="29.5203474" lon="105.0759971"><ele>268.47</ele><time>2026-06-19T00:02:05.000Z</time></trkpt>
        <trkpt lat="29.5204348" lon="105.0759267"><ele>268.79</ele><time>2026-06-19T00:02:14.000Z</time></trkpt>
        <trkpt lat="29.5205227" lon="105.0758569"><ele>269.62</ele><time>2026-06-19T00:02:23.000Z</time></trkpt>
        <trkpt lat="29.5205929" lon="105.0757809"><ele>268.32</ele><time>2026-06-19T00:02:30.000Z</time></trkpt>
        <trkpt lat="29.5206618" lon="105.0757012"><ele>267.27</ele><time>2026-06-19T00:02:39.000Z</time></trkpt>
        <trkpt lat="29.5207351" lon="105.0756336"><ele>266.57</ele><time>2026-06-19T00:02:45.000Z</time></trkpt>
        <trkpt lat="29.5207991" lon="105.0755407"><ele>266.4</ele><time>2026-06-19T00:02:55.000Z</time></trkpt>
        <trkpt lat="29.5208534" lon="105.0754419"><ele>266.03</ele><time>2026-06-19T00:03:07.000Z</time></trkpt>
        <trkpt lat="29.5209252" lon="105.0753734"><ele>265.42</ele><time>2026-06-19T00:03:15.000Z</time></trkpt>
        <trkpt lat="29.521" lon="105.0753112"><ele>265.61</ele><time>2026-06-19T00:03:24.000Z</time></trkpt>
        <trkpt lat="29.5210846" lon="105.0752472"><ele>264.69</ele><time>2026-06-19T00:03:32.000Z</time></trkpt>
        <trkpt lat="29.5211448" lon="105.075167"><ele>264.18</ele><time>2026-06-19T00:03:39.000Z</time></trkpt>
        <trkpt lat="29.5212223" lon="105.075102"><ele>263.96</ele><time>2026-06-19T00:03:47.000Z</time></trkpt>
        <trkpt lat="29.521301" lon="105.0750418"><ele>263.81</ele><time>2026-06-19T00:03:55.000Z</time></trkpt>
        <trkpt lat="29.5213826" lon="105.0749747"><ele>263.26</ele><time>2026-06-19T00:04:05.000Z</time></trkpt>
        <trkpt lat="29.521463" lon="105.0749199"><ele>262.75</ele><time>2026-06-19T00:04:11.000Z</time></trkpt>
        <trkpt lat="29.5215457" lon="105.0748582"><ele>263.09</ele><time>2026-06-19T00:04:20.000Z</time></trkpt>
        <trkpt lat="29.5216364" lon="105.0748213"><ele>264.5</ele><time>2026-06-19T00:04:29.000Z</time></trkpt>
        <trkpt lat="29.521713" lon="105.0747458"><ele>264.35</ele><time>2026-06-19T00:05:00.000Z</time></trkpt>
        <trkpt lat="29.5217903" lon="105.0746728"><ele>264.09</ele><time>2026-06-19T00:05:11.000Z</time></trkpt>
        <trkpt lat="29.521852" lon="105.0745882"><ele>262.37</ele><time>2026-06-19T00:05:19.000Z</time></trkpt>
        <trkpt lat="29.5219273" lon="105.0745265"><ele>261.8</ele><time>2026-06-19T00:05:26.000Z</time></trkpt>
        <trkpt lat="29.5220051" lon="105.0744512"><ele>262.24</ele><time>2026-06-19T00:05:42.000Z</time></trkpt>
        <trkpt lat="29.5220388" lon="105.0744261"><ele>262.05</ele><time>2026-06-19T00:05:50.000Z</time></trkpt>
        <trkpt lat="29.5221068" lon="105.0743762"><ele>261.63</ele><time>2026-06-19T00:06:30.000Z</time></trkpt>
        <trkpt lat="29.5221987" lon="105.0743254"><ele>262.27</ele><time>2026-06-19T00:06:40.000Z</time></trkpt>
        <trkpt lat="29.5222885" lon="105.074279"><ele>262.64</ele><time>2026-06-19T00:06:50.000Z</time></trkpt>
        <trkpt lat="29.5223717" lon="105.0742034"><ele>262.03</ele><time>2026-06-19T00:07:00.000Z</time></trkpt>
        <trkpt lat="29.5224495" lon="105.0741169"><ele>260.97</ele><time>2026-06-19T00:07:15.000Z</time></trkpt>
        <trkpt lat="29.5225307" lon="105.0740454"><ele>260.01</ele><time>2026-06-19T00:07:26.000Z</time></trkpt>
        <trkpt lat="29.522591" lon="105.0739444"><ele>258.94</ele><time>2026-06-19T00:07:49.000Z</time></trkpt>
        <trkpt lat="29.5226321" lon="105.0738326"><ele>258.57</ele><time>2026-06-19T00:08:02.000Z</time></trkpt>
        <trkpt lat="29.5226907" lon="105.0737277"><ele>257.99</ele><time>2026-06-19T00:08:09.000Z</time></trkpt>
        <trkpt lat="29.5227347" lon="105.0736141"><ele>257.82</ele><time>2026-06-19T00:08:19.000Z</time></trkpt>
        <trkpt lat="29.5227878" lon="105.0735113"><ele>257.61</ele><time>2026-06-19T00:08:28.000Z</time></trkpt>
        <trkpt lat="29.5228615" lon="105.0734252"><ele>257.51</ele><time>2026-06-19T00:08:38.000Z</time></trkpt>
        <trkpt lat="29.5229365" lon="105.0733515"><ele>257.37</ele><time>2026-06-19T00:08:48.000Z</time></trkpt>
        <trkpt lat="29.5230207" lon="105.0733041"><ele>257.73</ele><time>2026-06-19T00:08:58.000Z</time></trkpt>
        <trkpt lat="29.5231061" lon="105.0732596"><ele>257.76</ele><time>2026-06-19T00:09:09.000Z</time></trkpt>
        <trkpt lat="29.5231848" lon="105.0731868"><ele>257.8</ele><time>2026-06-19T00:09:16.000Z</time></trkpt>
        <trkpt lat="29.5232649" lon="105.0731067"><ele>257.91</ele><time>2026-06-19T00:09:26.000Z</time></trkpt>
        <trkpt lat="29.5233391" lon="105.0730082"><ele>258.17</ele><time>2026-06-19T00:09:36.000Z</time></trkpt>
        <trkpt lat="29.5234036" lon="105.0729061"><ele>257.69</ele><time>2026-06-19T00:09:46.000Z</time></trkpt>
        <trkpt lat="29.5234635" lon="105.0728201"><ele>257.45</ele><time>2026-06-19T00:09:54.000Z</time></trkpt>
        <trkpt lat="29.5235245" lon="105.0727296"><ele>257.3</ele><time>2026-06-19T00:10:04.000Z</time></trkpt>
        <trkpt lat="29.523574" lon="105.0726376"><ele>257.25</ele><time>2026-06-19T00:10:11.000Z</time></trkpt>
        <trkpt lat="29.5236312" lon="105.0725446"><ele>257.16</ele><time>2026-06-19T00:10:21.000Z</time></trkpt>
        <trkpt lat="29.5236787" lon="105.0724758"><ele>257.32</ele><time>2026-06-19T00:10:31.000Z</time></trkpt>
        <trkpt lat="29.5237122" lon="105.0723868"><ele>258.44</ele><time>2026-06-19T00:10:41.000Z</time></trkpt>
        <trkpt lat="29.5237552" lon="105.0722847"><ele>257.67</ele><time>2026-06-19T00:10:51.000Z</time></trkpt>
        <trkpt lat="29.5238081" lon="105.0721877"><ele>257.26</ele><time>2026-06-19T00:11:00.000Z</time></trkpt>
        <trkpt lat="29.5238136" lon="105.0720826"><ele>257.17</ele><time>2026-06-19T00:11:07.000Z</time></trkpt>
        <trkpt lat="29.5237813" lon="105.0719709"><ele>259.55</ele><time>2026-06-19T00:11:17.000Z</time></trkpt>
        <trkpt lat="29.5237293" lon="105.0718602"><ele>259.07</ele><time>2026-06-19T00:11:27.000Z</time></trkpt>
        <trkpt lat="29.5236556" lon="105.0717784"><ele>258.46</ele><time>2026-06-19T00:11:36.000Z</time></trkpt>
        <trkpt lat="29.5235719" lon="105.0717037"><ele>258.26</ele><time>2026-06-19T00:11:44.000Z</time></trkpt>
        <trkpt lat="29.5234896" lon="105.0716245"><ele>258.24</ele><time>2026-06-19T00:11:54.000Z</time></trkpt>
        <trkpt lat="29.5234279" lon="105.0715218"><ele>258.24</ele><time>2026-06-19T00:12:05.000Z</time></trkpt>
        <trkpt lat="29.5233894" lon="105.0714185"><ele>258.52</ele><time>2026-06-19T00:12:13.000Z</time></trkpt>
        <trkpt lat="29.5233761" lon="105.0713132"><ele>259</ele><time>2026-06-19T00:12:22.000Z</time></trkpt>
        <trkpt lat="29.5233488" lon="105.0712073"><ele>259.3</ele><time>2026-06-19T00:12:33.000Z</time></trkpt>
        <trkpt lat="29.5233211" lon="105.0711027"><ele>259.52</ele><time>2026-06-19T00:12:40.000Z</time></trkpt>
        <trkpt lat="29.5232974" lon="105.070961"><ele>259.83</ele><time>2026-06-19T00:12:53.000Z</time></trkpt>
        <trkpt lat="29.5232717" lon="105.0708408"><ele>262.65</ele><time>2026-06-19T00:13:00.000Z</time></trkpt>
        <trkpt lat="29.5232261" lon="105.0707323"><ele>261.8</ele><time>2026-06-19T00:13:25.000Z</time></trkpt>
        <trkpt lat="29.5231889" lon="105.0706244"><ele>262.16</ele><time>2026-06-19T00:13:34.000Z</time></trkpt>
        <trkpt lat="29.5231645" lon="105.0705048"><ele>263</ele><time>2026-06-19T00:13:45.000Z</time></trkpt>
        <trkpt lat="29.523136" lon="105.0703994"><ele>262.91</ele><time>2026-06-19T00:13:53.000Z</time></trkpt>
        <trkpt lat="29.5231057" lon="105.0703015"><ele>262.49</ele><time>2026-06-19T00:13:58.000Z</time></trkpt>
        <trkpt lat="29.5230704" lon="105.0701996"><ele>262.41</ele><time>2026-06-19T00:14:08.000Z</time></trkpt>
        <trkpt lat="29.5230436" lon="105.0700956"><ele>262.56</ele><time>2026-06-19T00:14:16.000Z</time></trkpt>
        <trkpt lat="29.5230202" lon="105.0699881"><ele>262.79</ele><time>2026-06-19T00:14:24.000Z</time></trkpt>
        <trkpt lat="29.5230082" lon="105.0698645"><ele>262.88</ele><time>2026-06-19T00:14:34.000Z</time></trkpt>
        <trkpt lat="29.5229977" lon="105.0697416"><ele>263.05</ele><time>2026-06-19T00:14:44.000Z</time></trkpt>
        <trkpt lat="29.5229795" lon="105.0696306"><ele>263.2</ele><time>2026-06-19T00:14:53.000Z</time></trkpt>
        <trkpt lat="29.5229603" lon="105.0695086"><ele>263.37</ele><time>2026-06-19T00:15:02.000Z</time></trkpt>
        <trkpt lat="29.5229445" lon="105.0693973"><ele>263.75</ele><time>2026-06-19T00:15:10.000Z</time></trkpt>
        <trkpt lat="29.5229446" lon="105.0692873"><ele>263.88</ele><time>2026-06-19T00:15:19.000Z</time></trkpt>
        <trkpt lat="29.5229516" lon="105.0691817"><ele>263.75</ele><time>2026-06-19T00:15:26.000Z</time></trkpt>
        <trkpt lat="29.5229673" lon="105.0690657"><ele>263.21</ele><time>2026-06-19T00:15:36.000Z</time></trkpt>
        <trkpt lat="29.5229891" lon="105.0689532"><ele>263.11</ele><time>2026-06-19T00:15:44.000Z</time></trkpt>
        <trkpt lat="29.5229889" lon="105.068828"><ele>263.12</ele><time>2026-06-19T00:15:54.000Z</time></trkpt>
        <trkpt lat="29.522997" lon="105.0687159"><ele>265.11</ele><time>2026-06-19T00:16:09.000Z</time></trkpt>
        <trkpt lat="29.5230146" lon="105.0686042"><ele>266.32</ele><time>2026-06-19T00:16:17.000Z</time></trkpt>
        <trkpt lat="29.5230312" lon="105.0684905"><ele>267.68</ele><time>2026-06-19T00:16:25.000Z</time></trkpt>
        <trkpt lat="29.5230487" lon="105.0683766"><ele>269.27</ele><time>2026-06-19T00:16:34.000Z</time></trkpt>
        <trkpt lat="29.523058" lon="105.0682591"><ele>269.18</ele><time>2026-06-19T00:16:42.000Z</time></trkpt>
        <trkpt lat="29.5230613" lon="105.0681513"><ele>268.88</ele><time>2026-06-19T00:16:51.000Z</time></trkpt>
        <trkpt lat="29.5230706" lon="105.0680421"><ele>268.94</ele><time>2026-06-19T00:16:59.000Z</time></trkpt>
        <trkpt lat="29.5230923" lon="105.067935"><ele>269.18</ele><time>2026-06-19T00:17:07.000Z</time></trkpt>
        <trkpt lat="29.5231038" lon="105.067827"><ele>269.16</ele><time>2026-06-19T00:17:15.000Z</time></trkpt>
        <trkpt lat="29.5231232" lon="105.0677098"><ele>269.37</ele><time>2026-06-19T00:17:25.000Z</time></trkpt>
        <trkpt lat="29.523142" lon="105.0675937"><ele>269.75</ele><time>2026-06-19T00:17:32.000Z</time></trkpt>
        <trkpt lat="29.5231607" lon="105.0674862"><ele>269.8</ele><time>2026-06-19T00:17:40.000Z</time></trkpt>
        <trkpt lat="29.5231768" lon="105.0673664"><ele>269.84</ele><time>2026-06-19T00:17:50.000Z</time></trkpt>
        <trkpt lat="29.5231895" lon="105.06725"><ele>269.58</ele><time>2026-06-19T00:18:00.000Z</time></trkpt>
        <trkpt lat="29.523205" lon="105.0671296"><ele>269.67</ele><time>2026-06-19T00:18:10.000Z</time></trkpt>
        <trkpt lat="29.5232077" lon="105.0670193"><ele>268.94</ele><time>2026-06-19T00:18:18.000Z</time></trkpt>
        <trkpt lat="29.5232263" lon="105.0668974"><ele>268.58</ele><time>2026-06-19T00:18:28.000Z</time></trkpt>
        <trkpt lat="29.523248" lon="105.0667839"><ele>268.75</ele><time>2026-06-19T00:18:36.000Z</time></trkpt>
        <trkpt lat="29.5232767" lon="105.0666813"><ele>268.75</ele><time>2026-06-19T00:18:44.000Z</time></trkpt>
        <trkpt lat="29.5233286" lon="105.0665907"><ele>267.95</ele><time>2026-06-19T00:18:54.000Z</time></trkpt>
        <trkpt lat="29.5234034" lon="105.0664966"><ele>267.66</ele><time>2026-06-19T00:19:04.000Z</time></trkpt>
        <trkpt lat="29.5234754" lon="105.0664149"><ele>267.57</ele><time>2026-06-19T00:19:12.000Z</time></trkpt>
        <trkpt lat="29.5235435" lon="105.0663393"><ele>267.52</ele><time>2026-06-19T00:19:22.000Z</time></trkpt>
        <trkpt lat="29.5236205" lon="105.0662472"><ele>267.29</ele><time>2026-06-19T00:19:30.000Z</time></trkpt>
        <trkpt lat="29.5236867" lon="105.0661654"><ele>266.64</ele><time>2026-06-19T00:19:39.000Z</time></trkpt>
        <trkpt lat="29.5237704" lon="105.0660898"><ele>266.01</ele><time>2026-06-19T00:19:47.000Z</time></trkpt>
        <trkpt lat="29.523841" lon="105.0660044"><ele>263.13</ele><time>2026-06-19T00:19:55.000Z</time></trkpt>
        <trkpt lat="29.5238969" lon="105.0659086"><ele>260.61</ele><time>2026-06-19T00:20:03.000Z</time></trkpt>
        <trkpt lat="29.5239365" lon="105.0658112"><ele>260.83</ele><time>2026-06-19T00:20:11.000Z</time></trkpt>
        <trkpt lat="29.5239718" lon="105.0657002"><ele>261.16</ele><time>2026-06-19T00:20:22.000Z</time></trkpt>
        <trkpt lat="29.5240069" lon="105.0655889"><ele>261.37</ele><time>2026-06-19T00:20:29.000Z</time></trkpt>
        <trkpt lat="29.5240316" lon="105.0654819"><ele>261.21</ele><time>2026-06-19T00:20:38.000Z</time></trkpt>
        <trkpt lat="29.5240465" lon="105.0653563"><ele>261.08</ele><time>2026-06-19T00:20:47.000Z</time></trkpt>
        <trkpt lat="29.5240504" lon="105.0652233"><ele>261.12</ele><time>2026-06-19T00:20:57.000Z</time></trkpt>
        <trkpt lat="29.5240503" lon="105.065084"><ele>261.25</ele><time>2026-06-19T00:21:06.000Z</time></trkpt>
        <trkpt lat="29.5240938" lon="105.0649537"><ele>261.22</ele><time>2026-06-19T00:21:17.000Z</time></trkpt>
        <trkpt lat="29.5241752" lon="105.0648628"><ele>261.17</ele><time>2026-06-19T00:21:27.000Z</time></trkpt>
        <trkpt lat="29.5242132" lon="105.06476"><ele>261.05</ele><time>2026-06-19T00:21:43.000Z</time></trkpt>
        <trkpt lat="29.5241947" lon="105.064652"><ele>260.94</ele><time>2026-06-19T00:21:53.000Z</time></trkpt>
        <trkpt lat="29.5241581" lon="105.0645482"><ele>261.79</ele><time>2026-06-19T00:22:03.000Z</time></trkpt>
        <trkpt lat="29.5241203" lon="105.0644387"><ele>262.86</ele><time>2026-06-19T00:22:13.000Z</time></trkpt>
        <trkpt lat="29.5240752" lon="105.0643391"><ele>263.75</ele><time>2026-06-19T00:22:23.000Z</time></trkpt>
        <trkpt lat="29.5240168" lon="105.0642406"><ele>264.23</ele><time>2026-06-19T00:22:35.000Z</time></trkpt>
        <trkpt lat="29.5239529" lon="105.0641374"><ele>264.06</ele><time>2026-06-19T00:22:45.000Z</time></trkpt>
        <trkpt lat="29.5239339" lon="105.0640137"><ele>264.62</ele><time>2026-06-19T00:22:57.000Z</time></trkpt>
        <trkpt lat="29.5239502" lon="105.0639107"><ele>265.08</ele><time>2026-06-19T00:23:11.000Z</time></trkpt>
        <trkpt lat="29.5239291" lon="105.0638148"><ele>266.6</ele><time>2026-06-19T00:23:56.000Z</time></trkpt>
        <trkpt lat="29.5239059" lon="105.0636972"><ele>267.64</ele><time>2026-06-19T00:24:06.000Z</time></trkpt>
        <trkpt lat="29.5238862" lon="105.0635856"><ele>268.28</ele><time>2026-06-19T00:24:10.000Z</time></trkpt>
        <trkpt lat="29.5238009" lon="105.0635178"><ele>268.74</ele><time>2026-06-19T00:24:16.000Z</time></trkpt>
        <trkpt lat="29.5237559" lon="105.0634968"><ele>269.16</ele><time>2026-06-19T00:24:26.000Z</time></trkpt>
        <trkpt lat="29.5237563" lon="105.0633985"><ele>269.47</ele><time>2026-06-19T00:24:58.000Z</time></trkpt>
        <trkpt lat="29.5236952" lon="105.0634046"><ele>270.3</ele><time>2026-06-19T00:25:16.000Z</time></trkpt>
        <trkpt lat="29.5236955" lon="105.0633217"><ele>269.18</ele><time>2026-06-19T00:25:28.000Z</time></trkpt>
        <trkpt lat="29.5236959" lon="105.0632105"><ele>268.85</ele><time>2026-06-19T00:25:36.000Z</time></trkpt>
        <trkpt lat="29.5236972" lon="105.0630922"><ele>268.99</ele><time>2026-06-19T00:25:46.000Z</time></trkpt>
        <trkpt lat="29.5237187" lon="105.0629725"><ele>268.83</ele><time>2026-06-19T00:25:54.000Z</time></trkpt>
        <trkpt lat="29.5237478" lon="105.0628503"><ele>268.35</ele><time>2026-06-19T00:26:04.000Z</time></trkpt>
        <trkpt lat="29.5237789" lon="105.0627303"><ele>267.91</ele><time>2026-06-19T00:26:14.000Z</time></trkpt>
        <trkpt lat="29.5238063" lon="105.0626244"><ele>267.35</ele><time>2026-06-19T00:26:22.000Z</time></trkpt>
        <trkpt lat="29.5238376" lon="105.0625186"><ele>266.91</ele><time>2026-06-19T00:26:30.000Z</time></trkpt>
        <trkpt lat="29.5238684" lon="105.0623996"><ele>266.59</ele><time>2026-06-19T00:26:40.000Z</time></trkpt>
        <trkpt lat="29.5239107" lon="105.0622944"><ele>266.4</ele><time>2026-06-19T00:26:50.000Z</time></trkpt>
        <trkpt lat="29.523946" lon="105.0621953"><ele>266.16</ele><time>2026-06-19T00:27:00.000Z</time></trkpt>
        <trkpt lat="29.5239762" lon="105.062094"><ele>266.1</ele><time>2026-06-19T00:27:10.000Z</time></trkpt>
        <trkpt lat="29.5240098" lon="105.0619926"><ele>266.37</ele><time>2026-06-19T00:27:20.000Z</time></trkpt>
        <trkpt lat="29.5240516" lon="105.0618987"><ele>267.15</ele><time>2026-06-19T00:27:30.000Z</time></trkpt>
        <trkpt lat="29.524089" lon="105.061782"><ele>267.84</ele><time>2026-06-19T00:27:40.000Z</time></trkpt>
        <trkpt lat="29.524115" lon="105.0616617"><ele>268.08</ele><time>2026-06-19T00:27:50.000Z</time></trkpt>
        <trkpt lat="29.5241296" lon="105.0615389"><ele>267.97</ele><time>2026-06-19T00:28:02.000Z</time></trkpt>
        <trkpt lat="29.5241244" lon="105.0614255"><ele>267.78</ele><time>2026-06-19T00:28:12.000Z</time></trkpt>
        <trkpt lat="29.5241113" lon="105.0613063"><ele>267.69</ele><time>2026-06-19T00:28:24.000Z</time></trkpt>
        <trkpt lat="29.5240921" lon="105.0611881"><ele>268.22</ele><time>2026-06-19T00:28:34.000Z</time></trkpt>
        <trkpt lat="29.5240706" lon="105.0610616"><ele>268.56</ele><time>2026-06-19T00:28:44.000Z</time></trkpt>
        <trkpt lat="29.5240599" lon="105.0609484"><ele>268.71</ele><time>2026-06-19T00:28:52.000Z</time></trkpt>
        <trkpt lat="29.5240804" lon="105.061014"><ele>268.73</ele><time>2026-06-19T00:29:16.000Z</time></trkpt>
        <trkpt lat="29.5241026" lon="105.0611348"><ele>269.37</ele><time>2026-06-19T00:29:24.000Z</time></trkpt>
        <trkpt lat="29.524117" lon="105.0612769"><ele>270.12</ele><time>2026-06-19T00:29:34.000Z</time></trkpt>
        <trkpt lat="29.5241218" lon="105.0614058"><ele>271.21</ele><time>2026-06-19T00:29:42.000Z</time></trkpt>
        <trkpt lat="29.5241232" lon="105.0615284"><ele>272.08</ele><time>2026-06-19T00:29:50.000Z</time></trkpt>
        <trkpt lat="29.5241132" lon="105.0616487"><ele>273.08</ele><time>2026-06-19T00:29:58.000Z</time></trkpt>
        <trkpt lat="29.5240821" lon="105.0617567"><ele>273.57</ele><time>2026-06-19T00:30:06.000Z</time></trkpt>
        <trkpt lat="29.5240462" lon="105.0618582"><ele>273.86</ele><time>2026-06-19T00:30:14.000Z</time></trkpt>
        <trkpt lat="29.524002" lon="105.0619562"><ele>273.58</ele><time>2026-06-19T00:30:22.000Z</time></trkpt>
        <trkpt lat="29.5239636" lon="105.0620642"><ele>273.12</ele><time>2026-06-19T00:30:30.000Z</time></trkpt>
        <trkpt lat="29.5239747" lon="105.0621682"><ele>271.83</ele><time>2026-06-19T00:30:44.000Z</time></trkpt>
        <trkpt lat="29.5240493" lon="105.0622164"><ele>270.99</ele><time>2026-06-19T00:31:14.000Z</time></trkpt>
        <trkpt lat="29.5241367" lon="105.0621813"><ele>273.46</ele><time>2026-06-19T00:31:24.000Z</time></trkpt>
        <trkpt lat="29.5241976" lon="105.0620743"><ele>274.58</ele><time>2026-06-19T00:31:33.000Z</time></trkpt>
        <trkpt lat="29.5242765" lon="105.0619848"><ele>275.22</ele><time>2026-06-19T00:31:45.000Z</time></trkpt>
        <trkpt lat="29.524368" lon="105.0619266"><ele>274.52</ele><time>2026-06-19T00:31:59.000Z</time></trkpt>
        <trkpt lat="29.5244524" lon="105.0618559"><ele>276.06</ele><time>2026-06-19T00:32:11.000Z</time></trkpt>
        <trkpt lat="29.5245454" lon="105.061843"><ele>277.38</ele><time>2026-06-19T00:32:23.000Z</time></trkpt>
        <trkpt lat="29.524613" lon="105.0617803"><ele>279.05</ele><time>2026-06-19T00:32:46.000Z</time></trkpt>
        <trkpt lat="29.5246536" lon="105.0616821"><ele>281.64</ele><time>2026-06-19T00:32:58.000Z</time></trkpt>
        <trkpt lat="29.524699" lon="105.0615785"><ele>283.87</ele><time>2026-06-19T00:33:12.000Z</time></trkpt>
        <trkpt lat="29.5247525" lon="105.061486"><ele>287.65</ele><time>2026-06-19T00:33:45.000Z</time></trkpt>
        <trkpt lat="29.5248335" lon="105.0614582"><ele>289.27</ele><time>2026-06-19T00:33:56.000Z</time></trkpt>
        <trkpt lat="29.5249068" lon="105.0613944"><ele>290.99</ele><time>2026-06-19T00:34:09.000Z</time></trkpt>
        <trkpt lat="29.5249558" lon="105.0613043"><ele>292.45</ele><time>2026-06-19T00:34:25.000Z</time></trkpt>
        <trkpt lat="29.525002" lon="105.0612082"><ele>294.54</ele><time>2026-06-19T00:34:35.000Z</time></trkpt>
        <trkpt lat="29.5250268" lon="105.0610937"><ele>296.52</ele><time>2026-06-19T00:34:45.000Z</time></trkpt>
        <trkpt lat="29.5250375" lon="105.0609727"><ele>296.61</ele><time>2026-06-19T00:34:56.000Z</time></trkpt>
        <trkpt lat="29.5250578" lon="105.0608615"><ele>296.49</ele><time>2026-06-19T00:35:07.000Z</time></trkpt>
        <trkpt lat="29.5250956" lon="105.0607612"><ele>296.61</ele><time>2026-06-19T00:35:17.000Z</time></trkpt>
        <trkpt lat="29.5251496" lon="105.0606633"><ele>299.72</ele><time>2026-06-19T00:35:30.000Z</time></trkpt>
        <trkpt lat="29.5252109" lon="105.0605601"><ele>299.08</ele><time>2026-06-19T00:35:41.000Z</time></trkpt>
        <trkpt lat="29.5252493" lon="105.0604531"><ele>299.55</ele><time>2026-06-19T00:35:53.000Z</time></trkpt>
        <trkpt lat="29.5252976" lon="105.0603535"><ele>301.51</ele><time>2026-06-19T00:36:01.000Z</time></trkpt>
        <trkpt lat="29.5253516" lon="105.060249"><ele>302.65</ele><time>2026-06-19T00:36:12.000Z</time></trkpt>
        <trkpt lat="29.5253606" lon="105.0601817"><ele>304</ele><time>2026-06-19T00:36:22.000Z</time></trkpt>
        <trkpt lat="29.5253666" lon="105.0600909"><ele>307.32</ele><time>2026-06-19T00:36:38.000Z</time></trkpt>
        <trkpt lat="29.5253968" lon="105.0599944"><ele>309.06</ele><time>2026-06-19T00:36:47.000Z</time></trkpt>
        <trkpt lat="29.5254265" lon="105.0598866"><ele>310.11</ele><time>2026-06-19T00:37:00.000Z</time></trkpt>
        <trkpt lat="29.5254873" lon="105.0597861"><ele>311.06</ele><time>2026-06-19T00:37:16.000Z</time></trkpt>
        <trkpt lat="29.5255293" lon="105.0596789"><ele>311.77</ele><time>2026-06-19T00:38:13.000Z</time></trkpt>
        <trkpt lat="29.5255386" lon="105.0595682"><ele>315.85</ele><time>2026-06-19T00:38:26.000Z</time></trkpt>
        <trkpt lat="29.5255494" lon="105.0594601"><ele>319.2</ele><time>2026-06-19T00:38:46.000Z</time></trkpt>
        <trkpt lat="29.5255576" lon="105.0593531"><ele>320.89</ele><time>2026-06-19T00:39:10.000Z</time></trkpt>
        <trkpt lat="29.5256277" lon="105.0593246"><ele>321.85</ele><time>2026-06-19T00:39:51.000Z</time></trkpt>
        <trkpt lat="29.525666" lon="105.0592423"><ele>321.89</ele><time>2026-06-19T00:40:00.000Z</time></trkpt>
        <trkpt lat="29.5256859" lon="105.0591366"><ele>320.92</ele><time>2026-06-19T00:40:10.000Z</time></trkpt>
        <trkpt lat="29.5257373" lon="105.059037"><ele>321.07</ele><time>2026-06-19T00:40:23.000Z</time></trkpt>
        <trkpt lat="29.5258006" lon="105.0589379"><ele>320.69</ele><time>2026-06-19T00:40:33.000Z</time></trkpt>
        <trkpt lat="29.5258688" lon="105.0588377"><ele>320.76</ele><time>2026-06-19T00:40:43.000Z</time></trkpt>
        <trkpt lat="29.525943" lon="105.0587594"><ele>321.08</ele><time>2026-06-19T00:40:52.000Z</time></trkpt>
        <trkpt lat="29.5259934" lon="105.0586567"><ele>321.43</ele><time>2026-06-19T00:41:04.000Z</time></trkpt>
        <trkpt lat="29.5260346" lon="105.058545"><ele>321.27</ele><time>2026-06-19T00:41:14.000Z</time></trkpt>
        <trkpt lat="29.526071" lon="105.0584318"><ele>321.18</ele><time>2026-06-19T00:41:24.000Z</time></trkpt>
        <trkpt lat="29.5261228" lon="105.0583402"><ele>320.98</ele><time>2026-06-19T00:41:34.000Z</time></trkpt>
        <trkpt lat="29.5261978" lon="105.0582577"><ele>320.33</ele><time>2026-06-19T00:41:42.000Z</time></trkpt>
        <trkpt lat="29.5262455" lon="105.0582444"><ele>319.77</ele><time>2026-06-19T00:41:50.000Z</time></trkpt>
        <trkpt lat="29.5261881" lon="105.058269"><ele>320.23</ele><time>2026-06-19T00:42:28.000Z</time></trkpt>
        <trkpt lat="29.5261073" lon="105.058207"><ele>322.85</ele><time>2026-06-19T00:43:00.000Z</time></trkpt>
        <trkpt lat="29.5260089" lon="105.0581322"><ele>324.51</ele><time>2026-06-19T00:43:10.000Z</time></trkpt>
        <trkpt lat="29.5259122" lon="105.05806"><ele>325.64</ele><time>2026-06-19T00:43:20.000Z</time></trkpt>
        <trkpt lat="29.5258127" lon="105.0580077"><ele>326.16</ele><time>2026-06-19T00:43:30.000Z</time></trkpt>
        <trkpt lat="29.5257166" lon="105.05796"><ele>326.82</ele><time>2026-06-19T00:43:40.000Z</time></trkpt>
        <trkpt lat="29.5256898" lon="105.05786"><ele>327.11</ele><time>2026-06-19T00:43:50.000Z</time></trkpt>
        <trkpt lat="29.5257162" lon="105.0577486"><ele>326.9</ele><time>2026-06-19T00:44:00.000Z</time></trkpt>
        <trkpt lat="29.5257823" lon="105.0576418"><ele>326.62</ele><time>2026-06-19T00:44:12.000Z</time></trkpt>
        <trkpt lat="29.5258106" lon="105.0575194"><ele>326.19</ele><time>2026-06-19T00:44:22.000Z</time></trkpt>
        <trkpt lat="29.5258056" lon="105.0574086"><ele>325.61</ele><time>2026-06-19T00:44:32.000Z</time></trkpt>
        <trkpt lat="29.5257886" lon="105.0572891"><ele>325.2</ele><time>2026-06-19T00:44:43.000Z</time></trkpt>
        <trkpt lat="29.5257899" lon="105.0571584"><ele>324.91</ele><time>2026-06-19T00:44:53.000Z</time></trkpt>
        <trkpt lat="29.5257998" lon="105.0570347"><ele>325.11</ele><time>2026-06-19T00:45:03.000Z</time></trkpt>
        <trkpt lat="29.5258352" lon="105.0569336"><ele>325.55</ele><time>2026-06-19T00:45:11.000Z</time></trkpt>
        <trkpt lat="29.5258561" lon="105.0568318"><ele>325.64</ele><time>2026-06-19T00:45:19.000Z</time></trkpt>
        <trkpt lat="29.5259157" lon="105.0567557"><ele>325.37</ele><time>2026-06-19T00:45:33.000Z</time></trkpt>
        <trkpt lat="29.5259756" lon="105.0566635"><ele>325.17</ele><time>2026-06-19T00:45:47.000Z</time></trkpt>
        <trkpt lat="29.5260515" lon="105.0565778"><ele>325.45</ele><time>2026-06-19T00:45:59.000Z</time></trkpt>
        <trkpt lat="29.5261482" lon="105.0565142"><ele>323.71</ele><time>2026-06-19T00:46:07.000Z</time></trkpt>
        <trkpt lat="29.5261908" lon="105.056469"><ele>325.51</ele><time>2026-06-19T00:46:13.000Z</time></trkpt>
        <trkpt lat="29.5262617" lon="105.0564144"><ele>323.74</ele><time>2026-06-19T00:46:37.000Z</time></trkpt>
        <trkpt lat="29.5263344" lon="105.0563272"><ele>322.5</ele><time>2026-06-19T00:46:47.000Z</time></trkpt>
        <trkpt lat="29.5264048" lon="105.0562427"><ele>321.55</ele><time>2026-06-19T00:46:58.000Z</time></trkpt>
        <trkpt lat="29.5264692" lon="105.056151"><ele>319</ele><time>2026-06-19T00:47:10.000Z</time></trkpt>
        <trkpt lat="29.5265593" lon="105.0561094"><ele>317.98</ele><time>2026-06-19T00:47:34.000Z</time></trkpt>
        <trkpt lat="29.526643" lon="105.0560439"><ele>318.24</ele><time>2026-06-19T00:48:00.000Z</time></trkpt>
        <trkpt lat="29.5267196" lon="105.0559651"><ele>318.45</ele><time>2026-06-19T00:48:10.000Z</time></trkpt>
        <trkpt lat="29.526814" lon="105.0559471"><ele>318.87</ele><time>2026-06-19T00:48:28.000Z</time></trkpt>
        <trkpt lat="29.5269161" lon="105.0559528"><ele>319.15</ele><time>2026-06-19T00:48:38.000Z</time></trkpt>
        <trkpt lat="29.5270124" lon="105.0559718"><ele>319.48</ele><time>2026-06-19T00:48:48.000Z</time></trkpt>
        <trkpt lat="29.5270752" lon="105.0559029"><ele>320.03</ele><time>2026-06-19T00:49:00.000Z</time></trkpt>
        <trkpt lat="29.5270911" lon="105.0557999"><ele>321.38</ele><time>2026-06-19T00:49:09.000Z</time></trkpt>
        <trkpt lat="29.5271072" lon="105.0556893"><ele>322.02</ele><time>2026-06-19T00:49:17.000Z</time></trkpt>
        <trkpt lat="29.5270987" lon="105.0555669"><ele>322.12</ele><time>2026-06-19T00:49:27.000Z</time></trkpt>
        <trkpt lat="29.5271119" lon="105.055444"><ele>321.91</ele><time>2026-06-19T00:49:36.000Z</time></trkpt>
        <trkpt lat="29.5271041" lon="105.055302"><ele>321.9</ele><time>2026-06-19T00:49:47.000Z</time></trkpt>
        <trkpt lat="29.5270954" lon="105.0551823"><ele>324.8</ele><time>2026-06-19T00:49:55.000Z</time></trkpt>
        <trkpt lat="29.5270536" lon="105.0550696"><ele>326.81</ele><time>2026-06-19T00:50:06.000Z</time></trkpt>
        <trkpt lat="29.5269947" lon="105.0549778"><ele>323.67</ele><time>2026-06-19T00:50:14.000Z</time></trkpt>
        <trkpt lat="29.5269292" lon="105.0548979"><ele>323.23</ele><time>2026-06-19T00:50:21.000Z</time></trkpt>
        <trkpt lat="29.5268753" lon="105.0548112"><ele>324.04</ele><time>2026-06-19T00:50:29.000Z</time></trkpt>
        <trkpt lat="29.5268375" lon="105.0547115"><ele>324.48</ele><time>2026-06-19T00:50:37.000Z</time></trkpt>
        <trkpt lat="29.5267973" lon="105.0546041"><ele>324.76</ele><time>2026-06-19T00:50:45.000Z</time></trkpt>
        <trkpt lat="29.5267754" lon="105.0544981"><ele>324.76</ele><time>2026-06-19T00:50:53.000Z</time></trkpt>
        <trkpt lat="29.5267635" lon="105.0543819"><ele>324.37</ele><time>2026-06-19T00:51:01.000Z</time></trkpt>
        <trkpt lat="29.5268223" lon="105.0542806"><ele>323.68</ele><time>2026-06-19T00:51:11.000Z</time></trkpt>
        <trkpt lat="29.5269066" lon="105.0542183"><ele>322.86</ele><time>2026-06-19T00:51:17.000Z</time></trkpt>
        <trkpt lat="29.5270044" lon="105.0541673"><ele>322.06</ele><time>2026-06-19T00:51:25.000Z</time></trkpt>
        <trkpt lat="29.5271083" lon="105.0541118"><ele>321.39</ele><time>2026-06-19T00:51:34.000Z</time></trkpt>
        <trkpt lat="29.5272075" lon="105.0540582"><ele>320.89</ele><time>2026-06-19T00:51:43.000Z</time></trkpt>
        <trkpt lat="29.5272986" lon="105.0540167"><ele>320.61</ele><time>2026-06-19T00:51:51.000Z</time></trkpt>
        <trkpt lat="29.5273778" lon="105.0539467"><ele>320</ele><time>2026-06-19T00:51:57.000Z</time></trkpt>
        <trkpt lat="29.527429" lon="105.0538443"><ele>320.76</ele><time>2026-06-19T00:52:06.000Z</time></trkpt>
        <trkpt lat="29.527422" lon="105.053713"><ele>318.26</ele><time>2026-06-19T00:52:18.000Z</time></trkpt>
        <trkpt lat="29.5273889" lon="105.0535927"><ele>317.42</ele><time>2026-06-19T00:52:26.000Z</time></trkpt>
        <trkpt lat="29.5273038" lon="105.0535098"><ele>317.1</ele><time>2026-06-19T00:52:34.000Z</time></trkpt>
        <trkpt lat="29.5272011" lon="105.0534593"><ele>317.05</ele><time>2026-06-19T00:52:42.000Z</time></trkpt>
        <trkpt lat="29.5270983" lon="105.0534246"><ele>317.06</ele><time>2026-06-19T00:52:48.000Z</time></trkpt>
        <trkpt lat="29.5269978" lon="105.0534249"><ele>317.13</ele><time>2026-06-19T00:52:54.000Z</time></trkpt>
        <trkpt lat="29.5269052" lon="105.0534102"><ele>317.3</ele><time>2026-06-19T00:53:03.000Z</time></trkpt>
        <trkpt lat="29.5268009" lon="105.0533973"><ele>317.75</ele><time>2026-06-19T00:53:10.000Z</time></trkpt>
        <trkpt lat="29.526706" lon="105.0533781"><ele>318.18</ele><time>2026-06-19T00:53:19.000Z</time></trkpt>
        <trkpt lat="29.5266152" lon="105.0533538"><ele>318.53</ele><time>2026-06-19T00:53:25.000Z</time></trkpt>
        <trkpt lat="29.5265177" lon="105.053337"><ele>322.29</ele><time>2026-06-19T00:53:33.000Z</time></trkpt>
        <trkpt lat="29.5264042" lon="105.0532972"><ele>322.48</ele><time>2026-06-19T00:53:43.000Z</time></trkpt>
        <trkpt lat="29.5262885" lon="105.0532626"><ele>322.04</ele><time>2026-06-19T00:53:51.000Z</time></trkpt>
        <trkpt lat="29.5261974" lon="105.0532192"><ele>322.06</ele><time>2026-06-19T00:54:00.000Z</time></trkpt>
        <trkpt lat="29.5261275" lon="105.0531426"><ele>322.25</ele><time>2026-06-19T00:54:07.000Z</time></trkpt>
        <trkpt lat="29.5260781" lon="105.053053"><ele>322.2</ele><time>2026-06-19T00:54:15.000Z</time></trkpt>
        <trkpt lat="29.526065" lon="105.0529476"><ele>321.72</ele><time>2026-06-19T00:54:23.000Z</time></trkpt>
        <trkpt lat="29.526055" lon="105.0528264"><ele>320.55</ele><time>2026-06-19T00:54:31.000Z</time></trkpt>
        <trkpt lat="29.5260514" lon="105.0527062"><ele>318.92</ele><time>2026-06-19T00:54:39.000Z</time></trkpt>
        <trkpt lat="29.5260475" lon="105.0525849"><ele>317.73</ele><time>2026-06-19T00:54:47.000Z</time></trkpt>
        <trkpt lat="29.5260207" lon="105.0524762"><ele>317.15</ele><time>2026-06-19T00:54:55.000Z</time></trkpt>
        <trkpt lat="29.5259915" lon="105.0523685"><ele>316.76</ele><time>2026-06-19T00:55:05.000Z</time></trkpt>
        <trkpt lat="29.5259673" lon="105.0522633"><ele>316.46</ele><time>2026-06-19T00:55:13.000Z</time></trkpt>
        <trkpt lat="29.525959" lon="105.0521523"><ele>316.48</ele><time>2026-06-19T00:55:21.000Z</time></trkpt>
        <trkpt lat="29.5259944" lon="105.0520384"><ele>316.82</ele><time>2026-06-19T00:55:30.000Z</time></trkpt>
        <trkpt lat="29.5260466" lon="105.0519373"><ele>317.54</ele><time>2026-06-19T00:55:38.000Z</time></trkpt>
        <trkpt lat="29.5260938" lon="105.0518189"><ele>315.53</ele><time>2026-06-19T00:55:48.000Z</time></trkpt>
        <trkpt lat="29.5261412" lon="105.0517091"><ele>314.53</ele><time>2026-06-19T00:55:56.000Z</time></trkpt>
        <trkpt lat="29.5261733" lon="105.0515961"><ele>314.27</ele><time>2026-06-19T00:56:04.000Z</time></trkpt>
        <trkpt lat="29.5261977" lon="105.0514828"><ele>314.2</ele><time>2026-06-19T00:56:15.000Z</time></trkpt>
        <trkpt lat="29.5262094" lon="105.0513601"><ele>314.49</ele><time>2026-06-19T00:56:23.000Z</time></trkpt>
        <trkpt lat="29.5262007" lon="105.0512399"><ele>316.64</ele><time>2026-06-19T00:56:32.000Z</time></trkpt>
        <trkpt lat="29.5261764" lon="105.0511143"><ele>315.85</ele><time>2026-06-19T00:56:42.000Z</time></trkpt>
        <trkpt lat="29.5261582" lon="105.050998"><ele>315.76</ele><time>2026-06-19T00:56:50.000Z</time></trkpt>
        <trkpt lat="29.5261636" lon="105.0508775"><ele>316.18</ele><time>2026-06-19T00:57:00.000Z</time></trkpt>
        <trkpt lat="29.5261613" lon="105.0507531"><ele>316</ele><time>2026-06-19T00:57:09.000Z</time></trkpt>
        <trkpt lat="29.5261664" lon="105.0506263"><ele>315.98</ele><time>2026-06-19T00:57:19.000Z</time></trkpt>
        <trkpt lat="29.5261793" lon="105.0505153"><ele>316.21</ele><time>2026-06-19T00:57:27.000Z</time></trkpt>
        <trkpt lat="29.5261703" lon="105.0504222"><ele>316.48</ele><time>2026-06-19T00:57:47.000Z</time></trkpt>
        <trkpt lat="29.5262525" lon="105.0504006"><ele>319.09</ele><time>2026-06-19T00:58:01.000Z</time></trkpt>
        <trkpt lat="29.5263493" lon="105.0503657"><ele>320.73</ele><time>2026-06-19T00:58:11.000Z</time></trkpt>
        <trkpt lat="29.5264485" lon="105.0503236"><ele>322.13</ele><time>2026-06-19T00:58:18.000Z</time></trkpt>
        <trkpt lat="29.5265271" lon="105.0502417"><ele>323.76</ele><time>2026-06-19T00:58:28.000Z</time></trkpt>
        <trkpt lat="29.5265966" lon="105.0501449"><ele>325.16</ele><time>2026-06-19T00:58:36.000Z</time></trkpt>
        <trkpt lat="29.5266541" lon="105.0500503"><ele>325.37</ele><time>2026-06-19T00:58:43.000Z</time></trkpt>
        <trkpt lat="29.5267036" lon="105.049951"><ele>325.34</ele><time>2026-06-19T00:58:52.000Z</time></trkpt>
        <trkpt lat="29.5267313" lon="105.0498443"><ele>325.31</ele><time>2026-06-19T00:58:59.000Z</time></trkpt>
        <trkpt lat="29.5267093" lon="105.0497349"><ele>325.19</ele><time>2026-06-19T00:59:07.000Z</time></trkpt>
        <trkpt lat="29.5266572" lon="105.0496342"><ele>325.35</ele><time>2026-06-19T00:59:15.000Z</time></trkpt>
        <trkpt lat="29.5266045" lon="105.0495364"><ele>325.25</ele><time>2026-06-19T00:59:43.000Z</time></trkpt>
        <trkpt lat="29.5265751" lon="105.0494143"><ele>326.52</ele><time>2026-06-19T00:59:54.000Z</time></trkpt>
        <trkpt lat="29.5265798" lon="105.0493044"><ele>325.87</ele><time>2026-06-19T01:00:02.000Z</time></trkpt>
        <trkpt lat="29.5266089" lon="105.049189"><ele>325.97</ele><time>2026-06-19T01:00:16.000Z</time></trkpt>
        <trkpt lat="29.52668" lon="105.0490848"><ele>327.18</ele><time>2026-06-19T01:00:27.000Z</time></trkpt>
        <trkpt lat="29.5267695" lon="105.0490089"><ele>327.13</ele><time>2026-06-19T01:00:37.000Z</time></trkpt>
        <trkpt lat="29.5268759" lon="105.0489496"><ele>326.85</ele><time>2026-06-19T01:00:46.000Z</time></trkpt>
        <trkpt lat="29.5269826" lon="105.0489408"><ele>326.15</ele><time>2026-06-19T01:00:54.000Z</time></trkpt>
        <trkpt lat="29.5270846" lon="105.0489626"><ele>325.66</ele><time>2026-06-19T01:01:02.000Z</time></trkpt>
        <trkpt lat="29.5271657" lon="105.0489895"><ele>325.44</ele><time>2026-06-19T01:01:13.000Z</time></trkpt>
        <trkpt lat="29.5272596" lon="105.0490269"><ele>327.63</ele><time>2026-06-19T01:02:04.000Z</time></trkpt>
        <trkpt lat="29.5273684" lon="105.049009"><ele>328.59</ele><time>2026-06-19T01:02:13.000Z</time></trkpt>
        <trkpt lat="29.5274668" lon="105.0490097"><ele>327.06</ele><time>2026-06-19T01:02:23.000Z</time></trkpt>
        <trkpt lat="29.5275529" lon="105.049052"><ele>327.5</ele><time>2026-06-19T01:02:29.000Z</time></trkpt>
        <trkpt lat="29.527643" lon="105.049095"><ele>327.7</ele><time>2026-06-19T01:02:39.000Z</time></trkpt>
        <trkpt lat="29.5277376" lon="105.0491542"><ele>327.86</ele><time>2026-06-19T01:02:46.000Z</time></trkpt>
        <trkpt lat="29.5278318" lon="105.0491613"><ele>327.74</ele><time>2026-06-19T01:02:55.000Z</time></trkpt>
        <trkpt lat="29.5279311" lon="105.0491435"><ele>325.63</ele><time>2026-06-19T01:03:02.000Z</time></trkpt>
        <trkpt lat="29.5280298" lon="105.0491036"><ele>323.93</ele><time>2026-06-19T01:03:11.000Z</time></trkpt>
        <trkpt lat="29.5281212" lon="105.0490558"><ele>322.96</ele><time>2026-06-19T01:03:18.000Z</time></trkpt>
        <trkpt lat="29.5282016" lon="105.0489988"><ele>322.56</ele><time>2026-06-19T01:03:27.000Z</time></trkpt>
        <trkpt lat="29.5282883" lon="105.0489506"><ele>322.38</ele><time>2026-06-19T01:03:34.000Z</time></trkpt>
        <trkpt lat="29.5283617" lon="105.0488669"><ele>322.17</ele><time>2026-06-19T01:04:22.000Z</time></trkpt>
        <trkpt lat="29.5284139" lon="105.0487726"><ele>324.18</ele><time>2026-06-19T01:04:30.000Z</time></trkpt>
        <trkpt lat="29.5284714" lon="105.0486812"><ele>324.31</ele><time>2026-06-19T01:04:38.000Z</time></trkpt>
        <trkpt lat="29.5285353" lon="105.0486046"><ele>324.55</ele><time>2026-06-19T01:04:48.000Z</time></trkpt>
        <trkpt lat="29.5286141" lon="105.0485522"><ele>325.07</ele><time>2026-06-19T01:04:58.000Z</time></trkpt>
        <trkpt lat="29.528709" lon="105.0485048"><ele>325.03</ele><time>2026-06-19T01:05:10.000Z</time></trkpt>
        <trkpt lat="29.5288036" lon="105.048489"><ele>326.05</ele><time>2026-06-19T01:05:20.000Z</time></trkpt>
        <trkpt lat="29.5288998" lon="105.0484846"><ele>327.13</ele><time>2026-06-19T01:05:32.000Z</time></trkpt>
        <trkpt lat="29.5289944" lon="105.0484921"><ele>328.44</ele><time>2026-06-19T01:05:42.000Z</time></trkpt>
        <trkpt lat="29.5290872" lon="105.0484993"><ele>329.81</ele><time>2026-06-19T01:05:56.000Z</time></trkpt>
        <trkpt lat="29.5291822" lon="105.0484959"><ele>331.72</ele><time>2026-06-19T01:06:07.000Z</time></trkpt>
        <trkpt lat="29.5292727" lon="105.0485091"><ele>332.88</ele><time>2026-06-19T01:06:17.000Z</time></trkpt>
        <trkpt lat="29.5293652" lon="105.0484744"><ele>336.14</ele><time>2026-06-19T01:06:26.000Z</time></trkpt>
        <trkpt lat="29.5294284" lon="105.0483834"><ele>338.28</ele><time>2026-06-19T01:06:37.000Z</time></trkpt>
        <trkpt lat="29.5294951" lon="105.0482861"><ele>341.21</ele><time>2026-06-19T01:06:45.000Z</time></trkpt>
        <trkpt lat="29.5295703" lon="105.0481902"><ele>340.45</ele><time>2026-06-19T01:06:57.000Z</time></trkpt>
        <trkpt lat="29.5296468" lon="105.0480976"><ele>342.27</ele><time>2026-06-19T01:07:06.000Z</time></trkpt>
        <trkpt lat="29.5297222" lon="105.048022"><ele>343.7</ele><time>2026-06-19T01:07:13.000Z</time></trkpt>
        <trkpt lat="29.5297984" lon="105.047937"><ele>347.98</ele><time>2026-06-19T01:07:23.000Z</time></trkpt>
        <trkpt lat="29.5298551" lon="105.0478472"><ele>346.58</ele><time>2026-06-19T01:07:31.000Z</time></trkpt>
        <trkpt lat="29.529896" lon="105.0477469"><ele>349.81</ele><time>2026-06-19T01:07:39.000Z</time></trkpt>
        <trkpt lat="29.5299211" lon="105.0476431"><ele>350.55</ele><time>2026-06-19T01:07:47.000Z</time></trkpt>
        <trkpt lat="29.5299509" lon="105.0475333"><ele>352.96</ele><time>2026-06-19T01:07:57.000Z</time></trkpt>
        <trkpt lat="29.5299735" lon="105.0474256"><ele>353.04</ele><time>2026-06-19T01:08:07.000Z</time></trkpt>
        <trkpt lat="29.5299992" lon="105.0473142"><ele>353.97</ele><time>2026-06-19T01:08:16.000Z</time></trkpt>
        <trkpt lat="29.5300357" lon="105.047204"><ele>354.24</ele><time>2026-06-19T01:08:25.000Z</time></trkpt>
        <trkpt lat="29.5300739" lon="105.0470963"><ele>355.27</ele><time>2026-06-19T01:08:34.000Z</time></trkpt>
        <trkpt lat="29.5301155" lon="105.0469915"><ele>355.36</ele><time>2026-06-19T01:08:43.000Z</time></trkpt>
        <trkpt lat="29.5301525" lon="105.0468914"><ele>356.76</ele><time>2026-06-19T01:08:51.000Z</time></trkpt>
        <trkpt lat="29.5301901" lon="105.0467782"><ele>357.72</ele><time>2026-06-19T01:09:03.000Z</time></trkpt>
        <trkpt lat="29.5302086" lon="105.0466617"><ele>357.26</ele><time>2026-06-19T01:09:11.000Z</time></trkpt>
        <trkpt lat="29.5302549" lon="105.046567"><ele>357</ele><time>2026-06-19T01:09:21.000Z</time></trkpt>
        <trkpt lat="29.5303029" lon="105.0464696"><ele>357.71</ele><time>2026-06-19T01:09:29.000Z</time></trkpt>
        <trkpt lat="29.5303479" lon="105.0463705"><ele>357.61</ele><time>2026-06-19T01:09:38.000Z</time></trkpt>
        <trkpt lat="29.5303836" lon="105.0462624"><ele>357.3</ele><time>2026-06-19T01:10:14.000Z</time></trkpt>
        <trkpt lat="29.5304305" lon="105.0461625"><ele>358.93</ele><time>2026-06-19T01:10:24.000Z</time></trkpt>
        <trkpt lat="29.530492" lon="105.0460802"><ele>361.17</ele><time>2026-06-19T01:10:38.000Z</time></trkpt>
        <trkpt lat="29.5305707" lon="105.0460238"><ele>362.82</ele><time>2026-06-19T01:10:48.000Z</time></trkpt>
        <trkpt lat="29.5306653" lon="105.0459925"><ele>364.27</ele><time>2026-06-19T01:11:00.000Z</time></trkpt>
        <trkpt lat="29.5307601" lon="105.0459763"><ele>365.12</ele><time>2026-06-19T01:11:08.000Z</time></trkpt>
        <trkpt lat="29.5308549" lon="105.0459566"><ele>365.62</ele><time>2026-06-19T01:11:18.000Z</time></trkpt>
        <trkpt lat="29.5309646" lon="105.0459356"><ele>365.81</ele><time>2026-06-19T01:11:29.000Z</time></trkpt>
        <trkpt lat="29.5310473" lon="105.0458548"><ele>366.04</ele><time>2026-06-19T01:11:39.000Z</time></trkpt>
        <trkpt lat="29.5310735" lon="105.0457413"><ele>366.63</ele><time>2026-06-19T01:11:48.000Z</time></trkpt>
        <trkpt lat="29.5311291" lon="105.0456358"><ele>367.43</ele><time>2026-06-19T01:11:59.000Z</time></trkpt>
        <trkpt lat="29.5312097" lon="105.0455667"><ele>371.12</ele><time>2026-06-19T01:12:11.000Z</time></trkpt>
        <trkpt lat="29.5312678" lon="105.0455425"><ele>374.18</ele><time>2026-06-19T01:12:26.000Z</time></trkpt>
        <trkpt lat="29.5313385" lon="105.045486"><ele>377.03</ele><time>2026-06-19T01:12:48.000Z</time></trkpt>
        <trkpt lat="29.5314032" lon="105.0454126"><ele>377.71</ele><time>2026-06-19T01:12:56.000Z</time></trkpt>
        <trkpt lat="29.5314776" lon="105.0453314"><ele>374.92</ele><time>2026-06-19T01:13:06.000Z</time></trkpt>
        <trkpt lat="29.5315622" lon="105.0452613"><ele>373.04</ele><time>2026-06-19T01:13:20.000Z</time></trkpt>
        <trkpt lat="29.5316501" lon="105.0452028"><ele>372.37</ele><time>2026-06-19T01:13:32.000Z</time></trkpt>
        <trkpt lat="29.5317311" lon="105.0451479"><ele>371.5</ele><time>2026-06-19T01:13:49.000Z</time></trkpt>
        <trkpt lat="29.5318095" lon="105.0450725"><ele>371.92</ele><time>2026-06-19T01:14:15.000Z</time></trkpt>
        <trkpt lat="29.5318847" lon="105.0449973"><ele>377.71</ele><time>2026-06-19T01:14:25.000Z</time></trkpt>
        <trkpt lat="29.5319072" lon="105.0448916"><ele>378.61</ele><time>2026-06-19T01:14:40.000Z</time></trkpt>
        <trkpt lat="29.5318584" lon="105.044797"><ele>378.32</ele><time>2026-06-19T01:14:53.000Z</time></trkpt>
        <trkpt lat="29.5317927" lon="105.0447054"><ele>378.65</ele><time>2026-06-19T01:15:04.000Z</time></trkpt>
        <trkpt lat="29.5317093" lon="105.0446309"><ele>379.87</ele><time>2026-06-19T01:15:16.000Z</time></trkpt>
        <trkpt lat="29.5316304" lon="105.0445642"><ele>381.46</ele><time>2026-06-19T01:15:25.000Z</time></trkpt>
        <trkpt lat="29.531567" lon="105.0444817"><ele>384.1</ele><time>2026-06-19T01:15:55.000Z</time></trkpt>
        <trkpt lat="29.5314818" lon="105.04442"><ele>392.25</ele><time>2026-06-19T01:16:18.000Z</time></trkpt>
        <trkpt lat="29.5313856" lon="105.0444366"><ele>399.81</ele><time>2026-06-19T01:16:30.000Z</time></trkpt>
        <trkpt lat="29.5312883" lon="105.0444567"><ele>399.08</ele><time>2026-06-19T01:17:02.000Z</time></trkpt>
        <trkpt lat="29.5312608" lon="105.0443802"><ele>404.96</ele><time>2026-06-19T01:17:21.000Z</time></trkpt>
        <trkpt lat="29.5313508" lon="105.0444358"><ele>406.42</ele><time>2026-06-19T01:18:36.000Z</time></trkpt>
        <trkpt lat="29.5314037" lon="105.0445238"><ele>407.99</ele><time>2026-06-19T01:19:00.000Z</time></trkpt>
        <trkpt lat="29.5314663" lon="105.0444584"><ele>410.51</ele><time>2026-06-19T01:19:48.000Z</time></trkpt>
        <trkpt lat="29.53155" lon="105.044473"><ele>411.57</ele><time>2026-06-19T01:20:14.000Z</time></trkpt>
        <trkpt lat="29.5316239" lon="105.0445358"><ele>410.51</ele><time>2026-06-19T01:20:34.000Z</time></trkpt>
        <trkpt lat="29.5315739" lon="105.0445867"><ele>407.79</ele><time>2026-06-19T01:21:03.000Z</time></trkpt>
        <trkpt lat="29.531616" lon="105.0446069"><ele>404.48</ele><time>2026-06-19T01:21:58.000Z</time></trkpt>
        <trkpt lat="29.5317251" lon="105.0446397"><ele>401.64</ele><time>2026-06-19T01:22:11.000Z</time></trkpt>
        <trkpt lat="29.5318128" lon="105.0447069"><ele>399.61</ele><time>2026-06-19T01:22:19.000Z</time></trkpt>
        <trkpt lat="29.5318883" lon="105.0448045"><ele>398.11</ele><time>2026-06-19T01:22:30.000Z</time></trkpt>
        <trkpt lat="29.5319379" lon="105.0449077"><ele>393.92</ele><time>2026-06-19T01:22:39.000Z</time></trkpt>
        <trkpt lat="29.5319689" lon="105.0449357"><ele>390.68</ele><time>2026-06-19T01:22:50.000Z</time></trkpt>
        <trkpt lat="29.532045" lon="105.0449545"><ele>390.64</ele><time>2026-06-19T01:23:18.000Z</time></trkpt>
        <trkpt lat="29.5321404" lon="105.0449761"><ele>388.7</ele><time>2026-06-19T01:23:32.000Z</time></trkpt>
        <trkpt lat="29.5322461" lon="105.0449887"><ele>383.73</ele><time>2026-06-19T01:23:41.000Z</time></trkpt>
        <trkpt lat="29.5323532" lon="105.0450308"><ele>381.59</ele><time>2026-06-19T01:23:53.000Z</time></trkpt>
        <trkpt lat="29.5324451" lon="105.0450827"><ele>378.6</ele><time>2026-06-19T01:24:03.000Z</time></trkpt>
        <trkpt lat="29.5324634" lon="105.0451819"><ele>375.47</ele><time>2026-06-19T01:24:33.000Z</time></trkpt>
        <trkpt lat="29.5324409" lon="105.04529"><ele>372.68</ele><time>2026-06-19T01:24:43.000Z</time></trkpt>
        <trkpt lat="29.5324666" lon="105.0454181"><ele>370.98</ele><time>2026-06-19T01:24:53.000Z</time></trkpt>
        <trkpt lat="29.5325432" lon="105.0454582"><ele>370.26</ele><time>2026-06-19T01:25:01.000Z</time></trkpt>
        <trkpt lat="29.5326414" lon="105.045496"><ele>369.82</ele><time>2026-06-19T01:25:11.000Z</time></trkpt>
        <trkpt lat="29.5327443" lon="105.0455374"><ele>370.26</ele><time>2026-06-19T01:25:17.000Z</time></trkpt>
        <trkpt lat="29.5328288" lon="105.0455962"><ele>371</ele><time>2026-06-19T01:25:25.000Z</time></trkpt>
        <trkpt lat="29.5329253" lon="105.0456501"><ele>371.15</ele><time>2026-06-19T01:25:33.000Z</time></trkpt>
        <trkpt lat="29.5330181" lon="105.0457069"><ele>370.72</ele><time>2026-06-19T01:25:41.000Z</time></trkpt>
        <trkpt lat="29.5331063" lon="105.0457442"><ele>369.2</ele><time>2026-06-19T01:25:49.000Z</time></trkpt>
        <trkpt lat="29.5332026" lon="105.0457925"><ele>369.4</ele><time>2026-06-19T01:25:57.000Z</time></trkpt>
        <trkpt lat="29.5332936" lon="105.0458408"><ele>369.32</ele><time>2026-06-19T01:26:07.000Z</time></trkpt>
        <trkpt lat="29.5333812" lon="105.0458837"><ele>369.65</ele><time>2026-06-19T01:26:15.000Z</time></trkpt>
        <trkpt lat="29.5334623" lon="105.0459352"><ele>368.29</ele><time>2026-06-19T01:26:23.000Z</time></trkpt>
        <trkpt lat="29.5335419" lon="105.046002"><ele>367.4</ele><time>2026-06-19T01:26:31.000Z</time></trkpt>
        <trkpt lat="29.5336358" lon="105.0460512"><ele>366.61</ele><time>2026-06-19T01:26:39.000Z</time></trkpt>
        <trkpt lat="29.5337302" lon="105.0460896"><ele>366.29</ele><time>2026-06-19T01:26:47.000Z</time></trkpt>
        <trkpt lat="29.5338239" lon="105.0461259"><ele>366.26</ele><time>2026-06-19T01:26:55.000Z</time></trkpt>
        <trkpt lat="29.533916" lon="105.0461164"><ele>366.3</ele><time>2026-06-19T01:27:03.000Z</time></trkpt>
        <trkpt lat="29.5340045" lon="105.0460816"><ele>366.23</ele><time>2026-06-19T01:27:09.000Z</time></trkpt>
        <trkpt lat="29.534108" lon="105.0460389"><ele>366.03</ele><time>2026-06-19T01:27:17.000Z</time></trkpt>
        <trkpt lat="29.5342162" lon="105.0460061"><ele>365.4</ele><time>2026-06-19T01:27:27.000Z</time></trkpt>
        <trkpt lat="29.5343167" lon="105.0459927"><ele>364.49</ele><time>2026-06-19T01:27:41.000Z</time></trkpt>
        <trkpt lat="29.5344116" lon="105.0459973"><ele>363.71</ele><time>2026-06-19T01:28:07.000Z</time></trkpt>
        <trkpt lat="29.5345002" lon="105.0459778"><ele>362.33</ele><time>2026-06-19T01:28:18.000Z</time></trkpt>
        <trkpt lat="29.5345836" lon="105.0460266"><ele>361.64</ele><time>2026-06-19T01:28:30.000Z</time></trkpt>
        <trkpt lat="29.5346414" lon="105.0461101"><ele>358.95</ele><time>2026-06-19T01:28:50.000Z</time></trkpt>
        <trkpt lat="29.5347235" lon="105.0461224"><ele>354.27</ele><time>2026-06-19T01:29:04.000Z</time></trkpt>
        <trkpt lat="29.53481" lon="105.04616"><ele>350.66</ele><time>2026-06-19T01:29:12.000Z</time></trkpt>
        <trkpt lat="29.5349039" lon="105.0461873"><ele>345.84</ele><time>2026-06-19T01:29:21.000Z</time></trkpt>
        <trkpt lat="29.5349875" lon="105.0462319"><ele>342.38</ele><time>2026-06-19T01:29:31.000Z</time></trkpt>
        <trkpt lat="29.5350756" lon="105.0462599"><ele>339.64</ele><time>2026-06-19T01:29:38.000Z</time></trkpt>
        <trkpt lat="29.5351653" lon="105.0462498"><ele>338.09</ele><time>2026-06-19T01:29:56.000Z</time></trkpt>
        <trkpt lat="29.5352767" lon="105.0462606"><ele>335.5</ele><time>2026-06-19T01:30:08.000Z</time></trkpt>
        <trkpt lat="29.535376" lon="105.04624"><ele>334.07</ele><time>2026-06-19T01:30:18.000Z</time></trkpt>
        <trkpt lat="29.5354702" lon="105.0462343"><ele>332.47</ele><time>2026-06-19T01:30:32.000Z</time></trkpt>
        <trkpt lat="29.5355574" lon="105.046188"><ele>330.58</ele><time>2026-06-19T01:30:44.000Z</time></trkpt>
        <trkpt lat="29.5356527" lon="105.0461783"><ele>329.17</ele><time>2026-06-19T01:30:58.000Z</time></trkpt>
        <trkpt lat="29.5357461" lon="105.0461748"><ele>327.24</ele><time>2026-06-19T01:31:06.000Z</time></trkpt>
        <trkpt lat="29.5358397" lon="105.0461383"><ele>326.28</ele><time>2026-06-19T01:31:34.000Z</time></trkpt>
        <trkpt lat="29.5359838" lon="105.0461327"><ele>323.62</ele><time>2026-06-19T01:31:48.000Z</time></trkpt>
        <trkpt lat="29.53609" lon="105.0461579"><ele>320.69</ele><time>2026-06-19T01:31:56.000Z</time></trkpt>
        <trkpt lat="29.5361902" lon="105.0461871"><ele>320.41</ele><time>2026-06-19T01:32:09.000Z</time></trkpt>
        <trkpt lat="29.5362858" lon="105.0461799"><ele>320.24</ele><time>2026-06-19T01:32:22.000Z</time></trkpt>
        <trkpt lat="29.5363583" lon="105.0461122"><ele>318.93</ele><time>2026-06-19T01:32:37.000Z</time></trkpt>
        <trkpt lat="29.5364137" lon="105.0460225"><ele>313.88</ele><time>2026-06-19T01:32:51.000Z</time></trkpt>
        <trkpt lat="29.5364872" lon="105.0459389"><ele>308.46</ele><time>2026-06-19T01:33:09.000Z</time></trkpt>
        <trkpt lat="29.5365618" lon="105.0458699"><ele>303.03</ele><time>2026-06-19T01:33:20.000Z</time></trkpt>
        <trkpt lat="29.536639" lon="105.0457944"><ele>298.62</ele><time>2026-06-19T01:33:35.000Z</time></trkpt>
        <trkpt lat="29.5367166" lon="105.045727"><ele>294.18</ele><time>2026-06-19T01:33:50.000Z</time></trkpt>
        <trkpt lat="29.5367946" lon="105.0456654"><ele>291.36</ele><time>2026-06-19T01:34:24.000Z</time></trkpt>
        <trkpt lat="29.536866" lon="105.0456007"><ele>288.47</ele><time>2026-06-19T01:34:46.000Z</time></trkpt>
        <trkpt lat="29.5369494" lon="105.0455549"><ele>285.67</ele><time>2026-06-19T01:35:22.000Z</time></trkpt>
        <trkpt lat="29.5370224" lon="105.0454928"><ele>283.27</ele><time>2026-06-19T01:35:47.000Z</time></trkpt>
        <trkpt lat="29.5370931" lon="105.0454289"><ele>281.78</ele><time>2026-06-19T01:36:04.000Z</time></trkpt>
        <trkpt lat="29.5371799" lon="105.0454211"><ele>280.73</ele><time>2026-06-19T01:36:20.000Z</time></trkpt>
        <trkpt lat="29.5372742" lon="105.0454366"><ele>280.57</ele><time>2026-06-19T01:36:34.000Z</time></trkpt>
        <trkpt lat="29.5373712" lon="105.0454424"><ele>280.02</ele><time>2026-06-19T01:36:51.000Z</time></trkpt>
        <trkpt lat="29.5374969" lon="105.0454209"><ele>279.77</ele><time>2026-06-19T01:37:02.000Z</time></trkpt>
        <trkpt lat="29.5376305" lon="105.0454241"><ele>278.25</ele><time>2026-06-19T01:37:11.000Z</time></trkpt>
        <trkpt lat="29.5377336" lon="105.0454463"><ele>275.23</ele><time>2026-06-19T01:37:21.000Z</time></trkpt>
        <trkpt lat="29.5378017" lon="105.0453892"><ele>272.66</ele><time>2026-06-19T01:37:59.000Z</time></trkpt>
        <trkpt lat="29.5378526" lon="105.0453031"><ele>270.97</ele><time>2026-06-19T01:38:15.000Z</time></trkpt>
        <trkpt lat="29.5378917" lon="105.0452048"><ele>268.95</ele><time>2026-06-19T01:38:33.000Z</time></trkpt>
        <trkpt lat="29.5379738" lon="105.0451848"><ele>266.1</ele><time>2026-06-19T01:39:13.000Z</time></trkpt>
        <trkpt lat="29.5380683" lon="105.0451929"><ele>261.75</ele><time>2026-06-19T01:39:21.000Z</time></trkpt>
        <trkpt lat="29.5381341" lon="105.0452704"><ele>259.51</ele><time>2026-06-19T01:39:47.000Z</time></trkpt>
        <trkpt lat="29.5381691" lon="105.0453866"><ele>258</ele><time>2026-06-19T01:39:57.000Z</time></trkpt>
        <trkpt lat="29.5381654" lon="105.0455042"><ele>259.01</ele><time>2026-06-19T01:40:13.000Z</time></trkpt>
        <trkpt lat="29.5381745" lon="105.0454554"><ele>259.61</ele><time>2026-06-19T01:40:33.000Z</time></trkpt>
        <trkpt lat="29.5381912" lon="105.0453451"><ele>260.31</ele><time>2026-06-19T01:40:43.000Z</time></trkpt>
        <trkpt lat="29.5381781" lon="105.045211"><ele>260</ele><time>2026-06-19T01:40:53.000Z</time></trkpt>
        <trkpt lat="29.5382408" lon="105.0451199"><ele>258.21</ele><time>2026-06-19T01:41:06.000Z</time></trkpt>
        <trkpt lat="29.5383379" lon="105.0451021"><ele>255.29</ele><time>2026-06-19T01:41:16.000Z</time></trkpt>
        <trkpt lat="29.5384432" lon="105.0451086"><ele>252.78</ele><time>2026-06-19T01:41:24.000Z</time></trkpt>
        <trkpt lat="29.5385445" lon="105.0451401"><ele>250.88</ele><time>2026-06-19T01:41:32.000Z</time></trkpt>
        <trkpt lat="29.5386117" lon="105.0450847"><ele>249.34</ele><time>2026-06-19T01:41:46.000Z</time></trkpt>
        <trkpt lat="29.5387009" lon="105.0450606"><ele>248.09</ele><time>2026-06-19T01:41:57.000Z</time></trkpt>
        <trkpt lat="29.5388091" lon="105.0450555"><ele>246.98</ele><time>2026-06-19T01:42:12.000Z</time></trkpt>
        <trkpt lat="29.538906" lon="105.0450787"><ele>244.38</ele><time>2026-06-19T01:42:24.000Z</time></trkpt>
        <trkpt lat="29.5389517" lon="105.0451669"><ele>243.57</ele><time>2026-06-19T01:42:34.000Z</time></trkpt>
        <trkpt lat="29.5390322" lon="105.0452311"><ele>244.86</ele><time>2026-06-19T01:42:46.000Z</time></trkpt>
        <trkpt lat="29.5391285" lon="105.0452353"><ele>245.59</ele><time>2026-06-19T01:42:56.000Z</time></trkpt>
        <trkpt lat="29.539236" lon="105.0452244"><ele>246.05</ele><time>2026-06-19T01:43:06.000Z</time></trkpt>
        <trkpt lat="29.539348" lon="105.0452133"><ele>246.34</ele><time>2026-06-19T01:43:16.000Z</time></trkpt>
        <trkpt lat="29.5394455" lon="105.0452103"><ele>246.53</ele><time>2026-06-19T01:43:24.000Z</time></trkpt>
        <trkpt lat="29.5395451" lon="105.0452227"><ele>246.56</ele><time>2026-06-19T01:43:32.000Z</time></trkpt>
        <trkpt lat="29.5396357" lon="105.0452453"><ele>246.32</ele><time>2026-06-19T01:43:40.000Z</time></trkpt>
        <trkpt lat="29.5397362" lon="105.0452743"><ele>246.09</ele><time>2026-06-19T01:43:50.000Z</time></trkpt>
        <trkpt lat="29.5398305" lon="105.0452841"><ele>245.52</ele><time>2026-06-19T01:43:58.000Z</time></trkpt>
        <trkpt lat="29.539926" lon="105.0452905"><ele>245.05</ele><time>2026-06-19T01:44:06.000Z</time></trkpt>
        <trkpt lat="29.5400183" lon="105.0453044"><ele>244.18</ele><time>2026-06-19T01:44:14.000Z</time></trkpt>
        <trkpt lat="29.5401186" lon="105.0452984"><ele>243.71</ele><time>2026-06-19T01:44:21.000Z</time></trkpt>
        <trkpt lat="29.5402192" lon="105.0452933"><ele>245.55</ele><time>2026-06-19T01:44:27.000Z</time></trkpt>
        <trkpt lat="29.5403225" lon="105.0452669"><ele>247.47</ele><time>2026-06-19T01:44:35.000Z</time></trkpt>
        <trkpt lat="29.540421" lon="105.0452505"><ele>249.22</ele><time>2026-06-19T01:44:42.000Z</time></trkpt>
        <trkpt lat="29.5405218" lon="105.0452598"><ele>249.75</ele><time>2026-06-19T01:44:52.000Z</time></trkpt>
        <trkpt lat="29.5406158" lon="105.0452945"><ele>249.94</ele><time>2026-06-19T01:45:00.000Z</time></trkpt>
        <trkpt lat="29.5407152" lon="105.0453573"><ele>250.59</ele><time>2026-06-19T01:45:08.000Z</time></trkpt>
        <trkpt lat="29.5408133" lon="105.0454048"><ele>251.69</ele><time>2026-06-19T01:45:16.000Z</time></trkpt>
        <trkpt lat="29.5409157" lon="105.0454676"><ele>253.28</ele><time>2026-06-19T01:45:26.000Z</time></trkpt>
        <trkpt lat="29.5409947" lon="105.0455427"><ele>254.34</ele><time>2026-06-19T01:45:35.000Z</time></trkpt>
        <trkpt lat="29.5410553" lon="105.0456377"><ele>255.73</ele><time>2026-06-19T01:45:44.000Z</time></trkpt>
        <trkpt lat="29.5411206" lon="105.0457279"><ele>254.65</ele><time>2026-06-19T01:45:51.000Z</time></trkpt>
        <trkpt lat="29.541189" lon="105.0458042"><ele>251.81</ele><time>2026-06-19T01:45:59.000Z</time></trkpt>
        <trkpt lat="29.5412572" lon="105.0458983"><ele>250.31</ele><time>2026-06-19T01:46:07.000Z</time></trkpt>
        <trkpt lat="29.5413238" lon="105.0459847"><ele>249.15</ele><time>2026-06-19T01:46:15.000Z</time></trkpt>
        <trkpt lat="29.5414113" lon="105.0460503"><ele>247.85</ele><time>2026-06-19T01:46:23.000Z</time></trkpt>
        <trkpt lat="29.541516" lon="105.0460871"><ele>246.75</ele><time>2026-06-19T01:46:31.000Z</time></trkpt>
        <trkpt lat="29.5416112" lon="105.0461179"><ele>246.6</ele><time>2026-06-19T01:46:39.000Z</time></trkpt>
        <trkpt lat="29.541713" lon="105.0461593"><ele>246.74</ele><time>2026-06-19T01:46:48.000Z</time></trkpt>
        <trkpt lat="29.5418083" lon="105.0462048"><ele>247.26</ele><time>2026-06-19T01:46:56.000Z</time></trkpt>
        <trkpt lat="29.5419096" lon="105.0462434"><ele>247.98</ele><time>2026-06-19T01:47:04.000Z</time></trkpt>
        <trkpt lat="29.5420092" lon="105.0463005"><ele>248.31</ele><time>2026-06-19T01:47:12.000Z</time></trkpt>
        <trkpt lat="29.5420993" lon="105.0463591"><ele>248.74</ele><time>2026-06-19T01:47:22.000Z</time></trkpt>
        <trkpt lat="29.5421861" lon="105.0464267"><ele>248.33</ele><time>2026-06-19T01:47:30.000Z</time></trkpt>
        <trkpt lat="29.5422982" lon="105.0464821"><ele>248.19</ele><time>2026-06-19T01:47:39.000Z</time></trkpt>
        <trkpt lat="29.5424004" lon="105.0465085"><ele>248.26</ele><time>2026-06-19T01:47:43.000Z</time></trkpt>
        <trkpt lat="29.5424983" lon="105.0465504"><ele>249.61</ele><time>2026-06-19T01:47:51.000Z</time></trkpt>
        <trkpt lat="29.5425933" lon="105.046594"><ele>251.08</ele><time>2026-06-19T01:48:01.000Z</time></trkpt>
        <trkpt lat="29.5426903" lon="105.046649"><ele>252.92</ele><time>2026-06-19T01:48:09.000Z</time></trkpt>
        <trkpt lat="29.5427806" lon="105.0466939"><ele>254.25</ele><time>2026-06-19T01:48:16.000Z</time></trkpt>
        <trkpt lat="29.5428698" lon="105.0467394"><ele>254.86</ele><time>2026-06-19T01:48:24.000Z</time></trkpt>
        <trkpt lat="29.5429718" lon="105.0467892"><ele>255.09</ele><time>2026-06-19T01:48:34.000Z</time></trkpt>
        <trkpt lat="29.5431308" lon="105.0467796"><ele>255.34</ele><time>2026-06-19T01:48:46.000Z</time></trkpt>
        <trkpt lat="29.543228" lon="105.0468344"><ele>256.07</ele><time>2026-06-19T01:48:52.000Z</time></trkpt>
        <trkpt lat="29.543308" lon="105.0468965"><ele>256.72</ele><time>2026-06-19T01:49:02.000Z</time></trkpt>
        <trkpt lat="29.5433964" lon="105.046916"><ele>256.67</ele><time>2026-06-19T01:49:09.000Z</time></trkpt>
        <trkpt lat="29.5434959" lon="105.0469322"><ele>256.75</ele><time>2026-06-19T01:49:16.000Z</time></trkpt>
        <trkpt lat="29.5435973" lon="105.0469467"><ele>256.78</ele><time>2026-06-19T01:49:24.000Z</time></trkpt>
        <trkpt lat="29.5436979" lon="105.0469525"><ele>256.94</ele><time>2026-06-19T01:49:32.000Z</time></trkpt>
        <trkpt lat="29.5437946" lon="105.0469103"><ele>257.22</ele><time>2026-06-19T01:49:40.000Z</time></trkpt>
        <trkpt lat="29.5438891" lon="105.0468812"><ele>256.36</ele><time>2026-06-19T01:49:48.000Z</time></trkpt>
        <trkpt lat="29.5439822" lon="105.0468493"><ele>255.67</ele><time>2026-06-19T01:49:57.000Z</time></trkpt>
        <trkpt lat="29.5440884" lon="105.046821"><ele>254.81</ele><time>2026-06-19T01:50:03.000Z</time></trkpt>
        <trkpt lat="29.5441995" lon="105.0468071"><ele>256.74</ele><time>2026-06-19T01:50:10.000Z</time></trkpt>
        <trkpt lat="29.5442984" lon="105.0467916"><ele>255.59</ele><time>2026-06-19T01:50:18.000Z</time></trkpt>
        <trkpt lat="29.5443892" lon="105.0467703"><ele>254.77</ele><time>2026-06-19T01:50:24.000Z</time></trkpt>
        <trkpt lat="29.5444715" lon="105.0467214"><ele>255.09</ele><time>2026-06-19T01:50:32.000Z</time></trkpt>
        <trkpt lat="29.5445619" lon="105.0466754"><ele>254.96</ele><time>2026-06-19T01:50:40.000Z</time></trkpt>
        <trkpt lat="29.5446639" lon="105.0466585"><ele>253.96</ele><time>2026-06-19T01:50:46.000Z</time></trkpt>
        <trkpt lat="29.5447705" lon="105.0466589"><ele>254.2</ele><time>2026-06-19T01:50:58.000Z</time></trkpt>
        <trkpt lat="29.5448864" lon="105.0466712"><ele>253.96</ele><time>2026-06-19T01:51:06.000Z</time></trkpt>
        <trkpt lat="29.5449976" lon="105.046687"><ele>253.16</ele><time>2026-06-19T01:51:15.000Z</time></trkpt>
        <trkpt lat="29.5451065" lon="105.0466955"><ele>252.41</ele><time>2026-06-19T01:51:19.000Z</time></trkpt>
        <trkpt lat="29.5452046" lon="105.0467195"><ele>254.13</ele><time>2026-06-19T01:51:27.000Z</time></trkpt>
        <trkpt lat="29.545295" lon="105.0467644"><ele>253.12</ele><time>2026-06-19T01:51:35.000Z</time></trkpt>
        <trkpt lat="29.5453956" lon="105.0468094"><ele>252.83</ele><time>2026-06-19T01:51:45.000Z</time></trkpt>
        <trkpt lat="29.5454963" lon="105.0468391"><ele>252.99</ele><time>2026-06-19T01:51:53.000Z</time></trkpt>
        <trkpt lat="29.5455931" lon="105.0468681"><ele>253.35</ele><time>2026-06-19T01:52:01.000Z</time></trkpt>
        <trkpt lat="29.5456909" lon="105.0468943"><ele>253.35</ele><time>2026-06-19T01:52:09.000Z</time></trkpt>
        <trkpt lat="29.545789" lon="105.0469268"><ele>253.72</ele><time>2026-06-19T01:52:16.000Z</time></trkpt>
        <trkpt lat="29.5458812" lon="105.0469499"><ele>255.3</ele><time>2026-06-19T01:52:22.000Z</time></trkpt>
        <trkpt lat="29.5459793" lon="105.0469783"><ele>256.61</ele><time>2026-06-19T01:52:30.000Z</time></trkpt>
        <trkpt lat="29.5460813" lon="105.046996"><ele>257.67</ele><time>2026-06-19T01:52:38.000Z</time></trkpt>
        <trkpt lat="29.546183" lon="105.0470176"><ele>258.83</ele><time>2026-06-19T01:52:46.000Z</time></trkpt>
        <trkpt lat="29.5462898" lon="105.0470389"><ele>259.37</ele><time>2026-06-19T01:52:54.000Z</time></trkpt>
        <trkpt lat="29.5463918" lon="105.0470469"><ele>259.43</ele><time>2026-06-19T01:53:02.000Z</time></trkpt>
        <trkpt lat="29.5464921" lon="105.0470591"><ele>259.02</ele><time>2026-06-19T01:53:10.000Z</time></trkpt>
        <trkpt lat="29.5465915" lon="105.0470654"><ele>258.4</ele><time>2026-06-19T01:53:18.000Z</time></trkpt>
        <trkpt lat="29.546697" lon="105.0470739"><ele>257.8</ele><time>2026-06-19T01:53:26.000Z</time></trkpt>
        <trkpt lat="29.5468042" lon="105.0470768"><ele>257.56</ele><time>2026-06-19T01:53:34.000Z</time></trkpt>
        <trkpt lat="29.5469093" lon="105.0470704"><ele>257.29</ele><time>2026-06-19T01:53:42.000Z</time></trkpt>
        <trkpt lat="29.547003" lon="105.0470656"><ele>256.9</ele><time>2026-06-19T01:53:48.000Z</time></trkpt>
        <trkpt lat="29.547113" lon="105.0470692"><ele>256.45</ele><time>2026-06-19T01:53:57.000Z</time></trkpt>
        <trkpt lat="29.5472329" lon="105.0470787"><ele>256</ele><time>2026-06-19T01:54:04.000Z</time></trkpt>
        <trkpt lat="29.5473503" lon="105.0470949"><ele>255.79</ele><time>2026-06-19T01:54:12.000Z</time></trkpt>
        <trkpt lat="29.5474634" lon="105.0471185"><ele>255.45</ele><time>2026-06-19T01:54:20.000Z</time></trkpt>
        <trkpt lat="29.5475748" lon="105.0471482"><ele>253.51</ele><time>2026-06-19T01:54:28.000Z</time></trkpt>
        <trkpt lat="29.5476737" lon="105.0471789"><ele>252.98</ele><time>2026-06-19T01:54:36.000Z</time></trkpt>
        <trkpt lat="29.5477801" lon="105.0471975"><ele>252.86</ele><time>2026-06-19T01:54:44.000Z</time></trkpt>
        <trkpt lat="29.5478738" lon="105.0472123"><ele>251.47</ele><time>2026-06-19T01:54:53.000Z</time></trkpt>
        <trkpt lat="29.5479735" lon="105.0472236"><ele>254.68</ele><time>2026-06-19T01:54:59.000Z</time></trkpt>
        <trkpt lat="29.5480699" lon="105.0472624"><ele>256.53</ele><time>2026-06-19T01:55:11.000Z</time></trkpt>
        <trkpt lat="29.5481725" lon="105.0472893"><ele>255.06</ele><time>2026-06-19T01:55:17.000Z</time></trkpt>
        <trkpt lat="29.5482711" lon="105.0473113"><ele>253.65</ele><time>2026-06-19T01:55:23.000Z</time></trkpt>
        <trkpt lat="29.5483708" lon="105.0473409"><ele>253.79</ele><time>2026-06-19T01:55:30.000Z</time></trkpt>
        <trkpt lat="29.5484667" lon="105.0473653"><ele>255.11</ele><time>2026-06-19T01:55:38.000Z</time></trkpt>
        <trkpt lat="29.5485623" lon="105.0473948"><ele>255.77</ele><time>2026-06-19T01:55:46.000Z</time></trkpt>
        <trkpt lat="29.5486566" lon="105.0474425"><ele>256.56</ele><time>2026-06-19T01:55:54.000Z</time></trkpt>
        <trkpt lat="29.5487512" lon="105.047479"><ele>256.88</ele><time>2026-06-19T01:56:03.000Z</time></trkpt>
        <trkpt lat="29.5488546" lon="105.0475172"><ele>257.11</ele><time>2026-06-19T01:56:10.000Z</time></trkpt>
        <trkpt lat="29.548958" lon="105.0475418"><ele>257.26</ele><time>2026-06-19T01:56:18.000Z</time></trkpt>
        <trkpt lat="29.5490753" lon="105.0475182"><ele>257.53</ele><time>2026-06-19T01:56:25.000Z</time></trkpt>
        <trkpt lat="29.5491546" lon="105.0475682"><ele>258.14</ele><time>2026-06-19T01:56:31.000Z</time></trkpt>
        <trkpt lat="29.5492003" lon="105.0476599"><ele>258.55</ele><time>2026-06-19T01:56:37.000Z</time></trkpt>
        <trkpt lat="29.5492737" lon="105.0477349"><ele>259.79</ele><time>2026-06-19T01:56:45.000Z</time></trkpt>
        <trkpt lat="29.54936" lon="105.047791"><ele>260.24</ele><time>2026-06-19T01:56:53.000Z</time></trkpt>
        <trkpt lat="29.5494526" lon="105.047861"><ele>259.85</ele><time>2026-06-19T01:57:02.000Z</time></trkpt>
        <trkpt lat="29.5495394" lon="105.0479195"><ele>258.29</ele><time>2026-06-19T01:57:08.000Z</time></trkpt>
        <trkpt lat="29.5496319" lon="105.0479667"><ele>256.97</ele><time>2026-06-19T01:57:16.000Z</time></trkpt>
        <trkpt lat="29.5497331" lon="105.0479827"><ele>256.16</ele><time>2026-06-19T01:57:24.000Z</time></trkpt>
        <trkpt lat="29.5498493" lon="105.0479906"><ele>255.67</ele><time>2026-06-19T01:57:34.000Z</time></trkpt>
        <trkpt lat="29.5499554" lon="105.0479761"><ele>255.5</ele><time>2026-06-19T01:57:44.000Z</time></trkpt>
        <trkpt lat="29.5500578" lon="105.0479654"><ele>256.16</ele><time>2026-06-19T01:58:16.000Z</time></trkpt>
        <trkpt lat="29.5501486" lon="105.0479833"><ele>256.67</ele><time>2026-06-19T01:58:28.000Z</time></trkpt>
        <trkpt lat="29.5502451" lon="105.0479858"><ele>256.06</ele><time>2026-06-19T01:58:36.000Z</time></trkpt>
        <trkpt lat="29.5503673" lon="105.0480032"><ele>254.85</ele><time>2026-06-19T01:58:44.000Z</time></trkpt>
        <trkpt lat="29.5504816" lon="105.0479847"><ele>253.58</ele><time>2026-06-19T01:58:50.000Z</time></trkpt>
        <trkpt lat="29.5505851" lon="105.0479776"><ele>253.22</ele><time>2026-06-19T01:58:58.000Z</time></trkpt>
        <trkpt lat="29.5506826" lon="105.0479801"><ele>252.7</ele><time>2026-06-19T01:59:08.000Z</time></trkpt>
        <trkpt lat="29.5507757" lon="105.0479662"><ele>251.98</ele><time>2026-06-19T01:59:18.000Z</time></trkpt>
        <trkpt lat="29.5508781" lon="105.0479571"><ele>250.77</ele><time>2026-06-19T01:59:28.000Z</time></trkpt>
        <trkpt lat="29.550986" lon="105.0479633"><ele>249.21</ele><time>2026-06-19T01:59:32.000Z</time></trkpt>
        <trkpt lat="29.5510902" lon="105.0479696"><ele>248.75</ele><time>2026-06-19T01:59:36.000Z</time></trkpt>
        <trkpt lat="29.5511836" lon="105.0479847"><ele>248.93</ele><time>2026-06-19T01:59:46.000Z</time></trkpt>
        <trkpt lat="29.5512852" lon="105.0479829"><ele>248.63</ele><time>2026-06-19T01:59:52.000Z</time></trkpt>
        <trkpt lat="29.5513795" lon="105.0480138"><ele>248.45</ele><time>2026-06-19T01:59:58.000Z</time></trkpt>
        <trkpt lat="29.5514907" lon="105.0480011"><ele>248.68</ele><time>2026-06-19T02:00:08.000Z</time></trkpt>
        <trkpt lat="29.5515896" lon="105.0479885"><ele>249.33</ele><time>2026-06-19T02:00:15.000Z</time></trkpt>
        <trkpt lat="29.5516891" lon="105.0480101"><ele>250.28</ele><time>2026-06-19T02:00:22.000Z</time></trkpt>
        <trkpt lat="29.5517891" lon="105.0480358"><ele>251.01</ele><time>2026-06-19T02:00:34.000Z</time></trkpt>
        <trkpt lat="29.5518718" lon="105.0480961"><ele>252.18</ele><time>2026-06-19T02:00:46.000Z</time></trkpt>
        <trkpt lat="29.5519354" lon="105.0481878"><ele>254.09</ele><time>2026-06-19T02:00:54.000Z</time></trkpt>
        <trkpt lat="29.5519961" lon="105.0482889"><ele>255.25</ele><time>2026-06-19T02:01:02.000Z</time></trkpt>
        <trkpt lat="29.5520487" lon="105.0484139"><ele>255.51</ele><time>2026-06-19T02:01:12.000Z</time></trkpt>
        <trkpt lat="29.5520979" lon="105.0485171"><ele>255.55</ele><time>2026-06-19T02:01:18.000Z</time></trkpt>
        <trkpt lat="29.5521686" lon="105.0485922"><ele>255.51</ele><time>2026-06-19T02:01:26.000Z</time></trkpt>
        <trkpt lat="29.5522325" lon="105.0486726"><ele>254.94</ele><time>2026-06-19T02:01:36.000Z</time></trkpt>
        <trkpt lat="29.5523006" lon="105.0487542"><ele>254.31</ele><time>2026-06-19T02:01:45.000Z</time></trkpt>
        <trkpt lat="29.5523746" lon="105.0488298"><ele>253.81</ele><time>2026-06-19T02:01:52.000Z</time></trkpt>
        <trkpt lat="29.5523873" lon="105.0490559"><ele>253.27</ele><time>2026-06-19T02:02:00.000Z</time></trkpt>
        <trkpt lat="29.5524185" lon="105.0492149"><ele>252.88</ele><time>2026-06-19T02:02:06.000Z</time></trkpt>
        <trkpt lat="29.5524726" lon="105.0493219"><ele>257.65</ele><time>2026-06-19T02:02:16.000Z</time></trkpt>
        <trkpt lat="29.5525185" lon="105.0494328"><ele>257.08</ele><time>2026-06-19T02:02:24.000Z</time></trkpt>
        <trkpt lat="29.5525602" lon="105.0495412"><ele>256.54</ele><time>2026-06-19T02:02:32.000Z</time></trkpt>
        <trkpt lat="29.5525824" lon="105.0496531"><ele>255.8</ele><time>2026-06-19T02:02:40.000Z</time></trkpt>
        <trkpt lat="29.5525759" lon="105.049761"><ele>255.98</ele><time>2026-06-19T02:02:52.000Z</time></trkpt>
        <trkpt lat="29.5525526" lon="105.0498651"><ele>259.05</ele><time>2026-06-19T02:03:00.000Z</time></trkpt>
        <trkpt lat="29.5525072" lon="105.0499703"><ele>261.18</ele><time>2026-06-19T02:03:08.000Z</time></trkpt>
        <trkpt lat="29.5524331" lon="105.0500415"><ele>262.46</ele><time>2026-06-19T02:03:16.000Z</time></trkpt>
        <trkpt lat="29.5523667" lon="105.0501243"><ele>263.26</ele><time>2026-06-19T02:03:24.000Z</time></trkpt>
        <trkpt lat="29.5522785" lon="105.0501808"><ele>262.81</ele><time>2026-06-19T02:03:32.000Z</time></trkpt>
        <trkpt lat="29.5522014" lon="105.050254"><ele>262.62</ele><time>2026-06-19T02:03:42.000Z</time></trkpt>
        <trkpt lat="29.5521647" lon="105.0503525"><ele>262.45</ele><time>2026-06-19T02:03:50.000Z</time></trkpt>
        <trkpt lat="29.5521616" lon="105.0504722"><ele>262.57</ele><time>2026-06-19T02:04:00.000Z</time></trkpt>
        <trkpt lat="29.5521623" lon="105.0505907"><ele>260.91</ele><time>2026-06-19T02:04:09.000Z</time></trkpt>
        <trkpt lat="29.5521525" lon="105.0507013"><ele>261.41</ele><time>2026-06-19T02:04:14.000Z</time></trkpt>
        <trkpt lat="29.5521346" lon="105.0508211"><ele>263.06</ele><time>2026-06-19T02:04:22.000Z</time></trkpt>
        <trkpt lat="29.5520644" lon="105.0508079"><ele>264.75</ele><time>2026-06-19T02:04:42.000Z</time></trkpt>
        <trkpt lat="29.5520523" lon="105.0507014"><ele>265.51</ele><time>2026-06-19T02:05:12.000Z</time></trkpt>
        <trkpt lat="29.5521161" lon="105.050598"><ele>266.97</ele><time>2026-06-19T02:05:20.000Z</time></trkpt>
        <trkpt lat="29.5521997" lon="105.0505124"><ele>268.82</ele><time>2026-06-19T02:05:29.000Z</time></trkpt>
        <trkpt lat="29.5522817" lon="105.0504363"><ele>269.87</ele><time>2026-06-19T02:05:36.000Z</time></trkpt>
        <trkpt lat="29.5523595" lon="105.0503651"><ele>270.4</ele><time>2026-06-19T02:05:44.000Z</time></trkpt>
        <trkpt lat="29.5524552" lon="105.0502873"><ele>272.46</ele><time>2026-06-19T02:05:50.000Z</time></trkpt>
        <trkpt lat="29.5525218" lon="105.050237"><ele>272.66</ele><time>2026-06-19T02:06:00.000Z</time></trkpt>
        <trkpt lat="29.5525906" lon="105.0501726"><ele>274.11</ele><time>2026-06-19T02:06:10.000Z</time></trkpt>
        <trkpt lat="29.5526764" lon="105.0501161"><ele>275.14</ele><time>2026-06-19T02:06:16.000Z</time></trkpt>
        <trkpt lat="29.5527566" lon="105.0500486"><ele>276.07</ele><time>2026-06-19T02:06:30.000Z</time></trkpt>
        <trkpt lat="29.5528335" lon="105.0499718"><ele>275.92</ele><time>2026-06-19T02:06:38.000Z</time></trkpt>
        <trkpt lat="29.5529126" lon="105.0498995"><ele>275.49</ele><time>2026-06-19T02:06:50.000Z</time></trkpt>
        <trkpt lat="29.5529522" lon="105.0498697"><ele>276.82</ele><time>2026-06-19T02:06:54.000Z</time></trkpt>
        <trkpt lat="29.5530177" lon="105.0498059"><ele>277.64</ele><time>2026-06-19T02:07:20.000Z</time></trkpt>
        <trkpt lat="29.5530885" lon="105.0497293"><ele>277.84</ele><time>2026-06-19T02:07:34.000Z</time></trkpt>
        <trkpt lat="29.5531789" lon="105.0496559"><ele>278.6</ele><time>2026-06-19T02:07:48.000Z</time></trkpt>
        <trkpt lat="29.5532643" lon="105.0495771"><ele>279.59</ele><time>2026-06-19T02:07:56.000Z</time></trkpt>
        <trkpt lat="29.5533001" lon="105.0495468"><ele>279.17</ele><time>2026-06-19T02:08:02.000Z</time></trkpt>
        <trkpt lat="29.5533538" lon="105.0494911"><ele>280.39</ele><time>2026-06-19T02:08:10.000Z</time></trkpt>
        <trkpt lat="29.5534328" lon="105.0494187"><ele>280.86</ele><time>2026-06-19T02:08:19.000Z</time></trkpt>
        <trkpt lat="29.5535161" lon="105.0493486"><ele>280</ele><time>2026-06-19T02:08:25.000Z</time></trkpt>
        <trkpt lat="29.5536026" lon="105.0492712"><ele>279.65</ele><time>2026-06-19T02:08:34.000Z</time></trkpt>
        <trkpt lat="29.5536845" lon="105.0492049"><ele>279.23</ele><time>2026-06-19T02:08:46.000Z</time></trkpt>
        <trkpt lat="29.5537663" lon="105.0491247"><ele>278.84</ele><time>2026-06-19T02:08:53.000Z</time></trkpt>
        <trkpt lat="29.553849" lon="105.0490474"><ele>278.66</ele><time>2026-06-19T02:09:02.000Z</time></trkpt>
        <trkpt lat="29.5539374" lon="105.0489701"><ele>278.61</ele><time>2026-06-19T02:09:10.000Z</time></trkpt>
        <trkpt lat="29.5540166" lon="105.0489011"><ele>278.44</ele><time>2026-06-19T02:09:16.000Z</time></trkpt>
        <trkpt lat="29.5540955" lon="105.0488447"><ele>278.09</ele><time>2026-06-19T02:09:24.000Z</time></trkpt>
        <trkpt lat="29.554177" lon="105.0487732"><ele>278.14</ele><time>2026-06-19T02:09:31.000Z</time></trkpt>
        <trkpt lat="29.5542559" lon="105.0486966"><ele>278.22</ele><time>2026-06-19T02:09:39.000Z</time></trkpt>
        <trkpt lat="29.5543527" lon="105.0486305"><ele>278.49</ele><time>2026-06-19T02:09:49.000Z</time></trkpt>
        <trkpt lat="29.554432" lon="105.048557"><ele>278.49</ele><time>2026-06-19T02:10:01.000Z</time></trkpt>
        <trkpt lat="29.5545019" lon="105.0484791"><ele>280.5</ele><time>2026-06-19T02:10:12.000Z</time></trkpt>
        <trkpt lat="29.5545756" lon="105.0484183"><ele>281.09</ele><time>2026-06-19T02:10:20.000Z</time></trkpt>
        <trkpt lat="29.5546558" lon="105.0483523"><ele>282.82</ele><time>2026-06-19T02:10:27.000Z</time></trkpt>
        <trkpt lat="29.5546978" lon="105.0483272"><ele>284.28</ele><time>2026-06-19T02:10:34.000Z</time></trkpt>
        <trkpt lat="29.5547671" lon="105.0482593"><ele>285.14</ele><time>2026-06-19T02:10:50.000Z</time></trkpt>
        <trkpt lat="29.5548532" lon="105.048172"><ele>285.55</ele><time>2026-06-19T02:10:58.000Z</time></trkpt>
        <trkpt lat="29.5549389" lon="105.0480912"><ele>284.65</ele><time>2026-06-19T02:11:06.000Z</time></trkpt>
        <trkpt lat="29.5550275" lon="105.0480333"><ele>283.75</ele><time>2026-06-19T02:11:16.000Z</time></trkpt>
        <trkpt lat="29.555092" lon="105.0479576"><ele>284.09</ele><time>2026-06-19T02:11:22.000Z</time></trkpt>
        <trkpt lat="29.5551691" lon="105.0478973"><ele>283.34</ele><time>2026-06-19T02:11:30.000Z</time></trkpt>
        <trkpt lat="29.5552382" lon="105.0478266"><ele>282.14</ele><time>2026-06-19T02:11:38.000Z</time></trkpt>
        <trkpt lat="29.5553167" lon="105.0477649"><ele>281.28</ele><time>2026-06-19T02:11:46.000Z</time></trkpt>
        <trkpt lat="29.5554018" lon="105.0476971"><ele>280.32</ele><time>2026-06-19T02:11:54.000Z</time></trkpt>
        <trkpt lat="29.5554756" lon="105.0476288"><ele>279.46</ele><time>2026-06-19T02:12:00.000Z</time></trkpt>
        <trkpt lat="29.5555473" lon="105.0475629"><ele>278.91</ele><time>2026-06-19T02:12:06.000Z</time></trkpt>
        <trkpt lat="29.5556316" lon="105.0474985"><ele>278.61</ele><time>2026-06-19T02:12:17.000Z</time></trkpt>
        <trkpt lat="29.5557157" lon="105.0474419"><ele>280.81</ele><time>2026-06-19T02:12:26.000Z</time></trkpt>
        <trkpt lat="29.555732" lon="105.0475238"><ele>280.46</ele><time>2026-06-19T02:12:35.000Z</time></trkpt>
        <trkpt lat="29.5557268" lon="105.0476431"><ele>281.58</ele><time>2026-06-19T02:12:40.000Z</time></trkpt>
        <trkpt lat="29.5557542" lon="105.0477559"><ele>282.27</ele><time>2026-06-19T02:12:47.000Z</time></trkpt>
        <trkpt lat="29.5557549" lon="105.0478757"><ele>281.79</ele><time>2026-06-19T02:12:53.000Z</time></trkpt>
        <trkpt lat="29.5558073" lon="105.0479657"><ele>281.04</ele><time>2026-06-19T02:13:01.000Z</time></trkpt>
        <trkpt lat="29.555859" lon="105.0480653"><ele>279.52</ele><time>2026-06-19T02:13:09.000Z</time></trkpt>
        <trkpt lat="29.5559081" lon="105.048158"><ele>278.32</ele><time>2026-06-19T02:13:17.000Z</time></trkpt>
        <trkpt lat="29.5559986" lon="105.0481908"><ele>277.46</ele><time>2026-06-19T02:13:29.000Z</time></trkpt>
        <trkpt lat="29.5560944" lon="105.0481991"><ele>277.43</ele><time>2026-06-19T02:13:35.000Z</time></trkpt>
        <trkpt lat="29.5561855" lon="105.0482311"><ele>276.52</ele><time>2026-06-19T02:13:43.000Z</time></trkpt>
        <trkpt lat="29.5562783" lon="105.0482307"><ele>274.18</ele><time>2026-06-19T02:13:53.000Z</time></trkpt>
        <trkpt lat="29.556368" lon="105.0481911"><ele>274.3</ele><time>2026-06-19T02:14:03.000Z</time></trkpt>
        <trkpt lat="29.5564633" lon="105.048143"><ele>273</ele><time>2026-06-19T02:14:15.000Z</time></trkpt>
        <trkpt lat="29.5564263" lon="105.048172"><ele>271.31</ele><time>2026-06-19T02:14:29.000Z</time></trkpt>
        <trkpt lat="29.5563711" lon="105.0482566"><ele>270.17</ele><time>2026-06-19T02:14:35.000Z</time></trkpt>
        <trkpt lat="29.5563078" lon="105.0483705"><ele>271.5</ele><time>2026-06-19T02:14:45.000Z</time></trkpt>
        <trkpt lat="29.5563186" lon="105.0484963"><ele>269.94</ele><time>2026-06-19T02:14:55.000Z</time></trkpt>
        <trkpt lat="29.5563694" lon="105.0485958"><ele>268.14</ele><time>2026-06-19T02:15:03.000Z</time></trkpt>
        <trkpt lat="29.5564478" lon="105.0486871"><ele>266.3</ele><time>2026-06-19T02:15:15.000Z</time></trkpt>
        <trkpt lat="29.5565311" lon="105.0487727"><ele>263.88</ele><time>2026-06-19T02:15:25.000Z</time></trkpt>
        <trkpt lat="29.55661" lon="105.0488629"><ele>262.09</ele><time>2026-06-19T02:15:35.000Z</time></trkpt>
        <trkpt lat="29.5566906" lon="105.0489499"><ele>261.3</ele><time>2026-06-19T02:15:46.000Z</time></trkpt>
        <trkpt lat="29.5567707" lon="105.0490397"><ele>261.64</ele><time>2026-06-19T02:15:55.000Z</time></trkpt>
        <trkpt lat="29.5568477" lon="105.0491272"><ele>262.4</ele><time>2026-06-19T02:16:05.000Z</time></trkpt>
        <trkpt lat="29.5569214" lon="105.0492042"><ele>263.61</ele><time>2026-06-19T02:16:15.000Z</time></trkpt>
        <trkpt lat="29.5569899" lon="105.0492804"><ele>264.65</ele><time>2026-06-19T02:16:24.000Z</time></trkpt>
        <trkpt lat="29.5570582" lon="105.0493589"><ele>265.12</ele><time>2026-06-19T02:16:31.000Z</time></trkpt>
        <trkpt lat="29.5571313" lon="105.0494385"><ele>265.45</ele><time>2026-06-19T02:16:39.000Z</time></trkpt>
        <trkpt lat="29.5571998" lon="105.0495165"><ele>266.2</ele><time>2026-06-19T02:16:47.000Z</time></trkpt>
        <trkpt lat="29.557271" lon="105.0496026"><ele>266.72</ele><time>2026-06-19T02:16:57.000Z</time></trkpt>
        <trkpt lat="29.5573434" lon="105.0496819"><ele>266.83</ele><time>2026-06-19T02:17:07.000Z</time></trkpt>
        <trkpt lat="29.5574129" lon="105.0497577"><ele>266.98</ele><time>2026-06-19T02:17:15.000Z</time></trkpt>
        <trkpt lat="29.5574809" lon="105.0498276"><ele>267.21</ele><time>2026-06-19T02:17:23.000Z</time></trkpt>
        <trkpt lat="29.557554" lon="105.0499153"><ele>267.52</ele><time>2026-06-19T02:17:33.000Z</time></trkpt>
        <trkpt lat="29.5576247" lon="105.0499957"><ele>267.88</ele><time>2026-06-19T02:17:41.000Z</time></trkpt>
        <trkpt lat="29.5576971" lon="105.050072"><ele>267.88</ele><time>2026-06-19T02:17:49.000Z</time></trkpt>
        <trkpt lat="29.5577668" lon="105.0501542"><ele>267.43</ele><time>2026-06-19T02:17:57.000Z</time></trkpt>
        <trkpt lat="29.5578403" lon="105.0502352"><ele>267.11</ele><time>2026-06-19T02:18:05.000Z</time></trkpt>
        <trkpt lat="29.5579076" lon="105.0503182"><ele>267.1</ele><time>2026-06-19T02:18:13.000Z</time></trkpt>
        <trkpt lat="29.5579853" lon="105.0503814"><ele>266.64</ele><time>2026-06-19T02:18:23.000Z</time></trkpt>
        <trkpt lat="29.5580717" lon="105.0503922"><ele>265.93</ele><time>2026-06-19T02:18:37.000Z</time></trkpt>
        <trkpt lat="29.5581387" lon="105.0504593"><ele>264.66</ele><time>2026-06-19T02:19:59.000Z</time></trkpt>
        <trkpt lat="29.5582304" lon="105.0505248"><ele>264.14</ele><time>2026-06-19T02:20:07.000Z</time></trkpt>
        <trkpt lat="29.5583258" lon="105.0505237"><ele>263</ele><time>2026-06-19T02:20:15.000Z</time></trkpt>
        <trkpt lat="29.558418" lon="105.0504475"><ele>262.01</ele><time>2026-06-19T02:20:25.000Z</time></trkpt>
        <trkpt lat="29.5584895" lon="105.0503586"><ele>260.83</ele><time>2026-06-19T02:20:33.000Z</time></trkpt>
        <trkpt lat="29.5585546" lon="105.0502512"><ele>260.51</ele><time>2026-06-19T02:20:41.000Z</time></trkpt>
        <trkpt lat="29.5586191" lon="105.0501424"><ele>260.46</ele><time>2026-06-19T02:20:49.000Z</time></trkpt>
        <trkpt lat="29.5586816" lon="105.0500447"><ele>260.92</ele><time>2026-06-19T02:20:57.000Z</time></trkpt>
        <trkpt lat="29.5587549" lon="105.0499659"><ele>261.35</ele><time>2026-06-19T02:21:05.000Z</time></trkpt>
        <trkpt lat="29.558821" lon="105.0498883"><ele>261.74</ele><time>2026-06-19T02:21:13.000Z</time></trkpt>
        <trkpt lat="29.5588808" lon="105.0497966"><ele>261.93</ele><time>2026-06-19T02:21:21.000Z</time></trkpt>
        <trkpt lat="29.5589397" lon="105.0496899"><ele>262</ele><time>2026-06-19T02:21:29.000Z</time></trkpt>
        <trkpt lat="29.5589934" lon="105.049589"><ele>262.25</ele><time>2026-06-19T02:21:37.000Z</time></trkpt>
        <trkpt lat="29.5590474" lon="105.0494987"><ele>262.34</ele><time>2026-06-19T02:21:45.000Z</time></trkpt>
        <trkpt lat="29.5591274" lon="105.0493875"><ele>262.24</ele><time>2026-06-19T02:21:55.000Z</time></trkpt>
        <trkpt lat="29.559209" lon="105.0492959"><ele>263.07</ele><time>2026-06-19T02:22:03.000Z</time></trkpt>
        <trkpt lat="29.5592694" lon="105.0491899"><ele>265.53</ele><time>2026-06-19T02:22:13.000Z</time></trkpt>
        <trkpt lat="29.5593303" lon="105.0490965"><ele>266.49</ele><time>2026-06-19T02:22:23.000Z</time></trkpt>
        <trkpt lat="29.559386" lon="105.049009"><ele>266.6</ele><time>2026-06-19T02:22:31.000Z</time></trkpt>
        <trkpt lat="29.5594463" lon="105.048926"><ele>266.04</ele><time>2026-06-19T02:22:39.000Z</time></trkpt>
        <trkpt lat="29.5595062" lon="105.0488385"><ele>266.3</ele><time>2026-06-19T02:22:49.000Z</time></trkpt>
        <trkpt lat="29.5595062" lon="105.0488385"><ele>266.3</ele><time>2026-06-19T02:24:05.000Z</time></trkpt>
      </trkseg>
  </trk>
</gpx>